<?xml version="1.0" encoding="UTF-8" standalone="no" ?>
<gpx xmlns="http://www.topografix.com/GPX/1/1" xmlns:xsi="http://www.w3.org/2001/XMLSchema-instance" xsi:schemaLocation="http://www.topografix.com/GPX/1/1 http://www.topografix.com/GPX/1/1/gpx.xsd" version="1.1" creator="VisuGPX - https://www.visugpx.com">
  <metadata>
    <name>2020-01-22 13:17:40 Rando Macornay</name>
    <desc><![CDATA[File with points/tracks from Locus Map/3.43.1]]></desc>
  </metadata>
  <trk>
    <name><![CDATA[2020-01-22 13:17:40]]></name>
    <extensions>
      <line xmlns="http://www.topografix.com/GPX/gpx_style/0/2">
        <color>0000FF</color>
        <opacity>0.59</opacity>
        <width>6.0</width>
      </line>
    </extensions>
    <trkseg>
      <trkpt lat="46.64825" lon="5.54863">
        <ele>303.75</ele>
        <time>2020-01-22T12:17:40.999Z</time>
      </trkpt>
      <trkpt lat="46.64825" lon="5.54868">
        <ele>295.75</ele>
        <time>2020-01-22T12:17:48.999Z</time>
      </trkpt>
      <trkpt lat="46.64819" lon="5.54877">
        <ele>281.22</ele>
        <time>2020-01-22T12:39:19.999Z</time>
      </trkpt>
      <trkpt lat="46.6482" lon="5.54878">
        <ele>285.22</ele>
        <time>2020-01-22T12:39:29.999Z</time>
      </trkpt>
      <trkpt lat="46.64824" lon="5.54876">
        <ele>288.78</ele>
        <time>2020-01-22T12:39:39.999Z</time>
      </trkpt>
      <trkpt lat="46.6482" lon="5.54879">
        <ele>289.29</ele>
        <time>2020-01-22T12:40:35.999Z</time>
      </trkpt>
      <trkpt lat="46.64822" lon="5.54873">
        <ele>289.78</ele>
        <time>2020-01-22T12:41:01.999Z</time>
      </trkpt>
      <trkpt lat="46.64818" lon="5.54872">
        <ele>289.8</ele>
        <time>2020-01-22T12:41:15.999Z</time>
      </trkpt>
      <trkpt lat="46.64822" lon="5.5487">
        <ele>289.43</ele>
        <time>2020-01-22T12:41:42.999Z</time>
      </trkpt>
      <trkpt lat="46.64823" lon="5.54877">
        <ele>288.83</ele>
        <time>2020-01-22T12:42:29.999Z</time>
      </trkpt>
      <trkpt lat="46.6483" lon="5.54875">
        <ele>288.76</ele>
        <time>2020-01-22T12:42:44.999Z</time>
      </trkpt>
      <trkpt lat="46.64825" lon="5.54876">
        <ele>288.96</ele>
        <time>2020-01-22T12:43:08.999Z</time>
      </trkpt>
      <trkpt lat="46.64821" lon="5.54876">
        <ele>289.12</ele>
        <time>2020-01-22T12:43:18.999Z</time>
      </trkpt>
      <trkpt lat="46.64825" lon="5.54873">
        <ele>289.19</ele>
        <time>2020-01-22T12:44:05.999Z</time>
      </trkpt>
      <trkpt lat="46.64824" lon="5.54877">
        <ele>289.11</ele>
        <time>2020-01-22T12:44:15.999Z</time>
      </trkpt>
      <trkpt lat="46.6482" lon="5.54878">
        <ele>288.58</ele>
        <time>2020-01-22T12:44:25.999Z</time>
      </trkpt>
      <trkpt lat="46.64821" lon="5.54883">
        <ele>288.06</ele>
        <time>2020-01-22T12:44:35.999Z</time>
      </trkpt>
      <trkpt lat="46.64826" lon="5.54887">
        <ele>286.54</ele>
        <time>2020-01-22T12:44:45.999Z</time>
      </trkpt>
      <trkpt lat="46.64826" lon="5.54882">
        <ele>285.43</ele>
        <time>2020-01-22T12:44:55.999Z</time>
      </trkpt>
      <trkpt lat="46.64825" lon="5.54877">
        <ele>284.92</ele>
        <time>2020-01-22T12:45:05.999Z</time>
      </trkpt>
      <trkpt lat="46.64824" lon="5.54878">
        <ele>284.85</ele>
        <time>2020-01-22T12:45:18.999Z</time>
      </trkpt>
      <trkpt lat="46.64821" lon="5.54879">
        <ele>284.98</ele>
        <time>2020-01-22T12:45:28.999Z</time>
      </trkpt>
      <trkpt lat="46.64822" lon="5.54882">
        <ele>285.59</ele>
        <time>2020-01-22T12:45:38.999Z</time>
      </trkpt>
      <trkpt lat="46.64825" lon="5.54878">
        <ele>285.62</ele>
        <time>2020-01-22T12:45:48.999Z</time>
      </trkpt>
      <trkpt lat="46.64824" lon="5.54879">
        <ele>285.68</ele>
        <time>2020-01-22T12:46:01.999Z</time>
      </trkpt>
      <trkpt lat="46.64823" lon="5.54882">
        <ele>285.58</ele>
        <time>2020-01-22T12:46:11.999Z</time>
      </trkpt>
      <trkpt lat="46.64822" lon="5.54879">
        <ele>285.55</ele>
        <time>2020-01-22T12:46:21.999Z</time>
      </trkpt>
      <trkpt lat="46.64823" lon="5.54878">
        <ele>285.7</ele>
        <time>2020-01-22T12:46:31.999Z</time>
      </trkpt>
      <trkpt lat="46.64823" lon="5.54875">
        <ele>285.77</ele>
        <time>2020-01-22T12:46:41.999Z</time>
      </trkpt>
      <trkpt lat="46.64824" lon="5.54874">
        <ele>285.78</ele>
        <time>2020-01-22T12:46:51.999Z</time>
      </trkpt>
      <trkpt lat="46.64822" lon="5.54873">
        <ele>285.97</ele>
        <time>2020-01-22T12:47:01.999Z</time>
      </trkpt>
      <trkpt lat="46.64824" lon="5.54872">
        <ele>286.01</ele>
        <time>2020-01-22T12:47:11.999Z</time>
      </trkpt>
      <trkpt lat="46.64826" lon="5.54864">
        <ele>285.23</ele>
        <time>2020-01-22T12:47:21.999Z</time>
      </trkpt>
      <trkpt lat="46.64829" lon="5.54852">
        <ele>284.05</ele>
        <time>2020-01-22T12:47:31.999Z</time>
      </trkpt>
      <trkpt lat="46.64824" lon="5.54838">
        <ele>283.24</ele>
        <time>2020-01-22T12:47:41.999Z</time>
      </trkpt>
      <trkpt lat="46.64815" lon="5.54824">
        <ele>282.89</ele>
        <time>2020-01-22T12:47:51.999Z</time>
      </trkpt>
      <trkpt lat="46.64808" lon="5.54818">
        <ele>282.89</ele>
        <time>2020-01-22T12:48:01.999Z</time>
      </trkpt>
      <trkpt lat="46.64801" lon="5.54803">
        <ele>282.44</ele>
        <time>2020-01-22T12:48:11.999Z</time>
      </trkpt>
      <trkpt lat="46.64796" lon="5.54791">
        <ele>281.32</ele>
        <time>2020-01-22T12:48:21.999Z</time>
      </trkpt>
      <trkpt lat="46.64789" lon="5.54777">
        <ele>280.06</ele>
        <time>2020-01-22T12:48:31.999Z</time>
      </trkpt>
      <trkpt lat="46.64782" lon="5.54764">
        <ele>279.2</ele>
        <time>2020-01-22T12:48:41.999Z</time>
      </trkpt>
      <trkpt lat="46.64777" lon="5.54753">
        <ele>278.83</ele>
        <time>2020-01-22T12:48:51.999Z</time>
      </trkpt>
      <trkpt lat="46.64773" lon="5.54742">
        <ele>278.89</ele>
        <time>2020-01-22T12:49:01.999Z</time>
      </trkpt>
      <trkpt lat="46.64768" lon="5.54724">
        <ele>278.83</ele>
        <time>2020-01-22T12:49:11.999Z</time>
      </trkpt>
      <trkpt lat="46.64761" lon="5.54708">
        <ele>278.28</ele>
        <time>2020-01-22T12:49:21.999Z</time>
      </trkpt>
      <trkpt lat="46.64755" lon="5.54697">
        <ele>278.09</ele>
        <time>2020-01-22T12:49:31.999Z</time>
      </trkpt>
      <trkpt lat="46.64749" lon="5.54685">
        <ele>278.07</ele>
        <time>2020-01-22T12:49:41.999Z</time>
      </trkpt>
      <trkpt lat="46.64741" lon="5.5467">
        <ele>277.95</ele>
        <time>2020-01-22T12:49:51.999Z</time>
      </trkpt>
      <trkpt lat="46.64738" lon="5.54647">
        <ele>278.01</ele>
        <time>2020-01-22T12:50:01.999Z</time>
      </trkpt>
      <trkpt lat="46.64739" lon="5.54638">
        <ele>278.52</ele>
        <time>2020-01-22T12:50:11.999Z</time>
      </trkpt>
      <trkpt lat="46.64735" lon="5.54621">
        <ele>279.12</ele>
        <time>2020-01-22T12:50:21.999Z</time>
      </trkpt>
      <trkpt lat="46.6473" lon="5.54604">
        <ele>280.1</ele>
        <time>2020-01-22T12:50:31.999Z</time>
      </trkpt>
      <trkpt lat="46.64727" lon="5.54594">
        <ele>280.9</ele>
        <time>2020-01-22T12:50:41.999Z</time>
      </trkpt>
      <trkpt lat="46.6472" lon="5.5458">
        <ele>281.18</ele>
        <time>2020-01-22T12:50:51.999Z</time>
      </trkpt>
      <trkpt lat="46.64713" lon="5.54561">
        <ele>281.79</ele>
        <time>2020-01-22T12:51:01.999Z</time>
      </trkpt>
      <trkpt lat="46.64706" lon="5.54549">
        <ele>282.53</ele>
        <time>2020-01-22T12:51:11.999Z</time>
      </trkpt>
      <trkpt lat="46.64699" lon="5.54533">
        <ele>283.35</ele>
        <time>2020-01-22T12:51:21.999Z</time>
      </trkpt>
      <trkpt lat="46.64693" lon="5.54522">
        <ele>284.05</ele>
        <time>2020-01-22T12:51:31.999Z</time>
      </trkpt>
      <trkpt lat="46.64686" lon="5.54508">
        <ele>284.54</ele>
        <time>2020-01-22T12:51:41.999Z</time>
      </trkpt>
      <trkpt lat="46.64679" lon="5.54499">
        <ele>285.18</ele>
        <time>2020-01-22T12:51:51.999Z</time>
      </trkpt>
      <trkpt lat="46.64677" lon="5.54492">
        <ele>285.91</ele>
        <time>2020-01-22T12:52:01.999Z</time>
      </trkpt>
      <trkpt lat="46.64671" lon="5.54498">
        <ele>286.1</ele>
        <time>2020-01-22T12:52:11.999Z</time>
      </trkpt>
      <trkpt lat="46.64665" lon="5.54508">
        <ele>285.92</ele>
        <time>2020-01-22T12:52:21.999Z</time>
      </trkpt>
      <trkpt lat="46.64661" lon="5.54525">
        <ele>286.09</ele>
        <time>2020-01-22T12:52:31.999Z</time>
      </trkpt>
      <trkpt lat="46.64662" lon="5.54541">
        <ele>285.98</ele>
        <time>2020-01-22T12:52:41.999Z</time>
      </trkpt>
      <trkpt lat="46.64664" lon="5.54558">
        <ele>286.65</ele>
        <time>2020-01-22T12:52:51.999Z</time>
      </trkpt>
      <trkpt lat="46.64663" lon="5.54575">
        <ele>287.85</ele>
        <time>2020-01-22T12:53:01.999Z</time>
      </trkpt>
      <trkpt lat="46.64666" lon="5.54589">
        <ele>289.09</ele>
        <time>2020-01-22T12:53:11.999Z</time>
      </trkpt>
      <trkpt lat="46.64668" lon="5.54596">
        <ele>289.66</ele>
        <time>2020-01-22T12:53:21.999Z</time>
      </trkpt>
      <trkpt lat="46.64662" lon="5.54606">
        <ele>290.94</ele>
        <time>2020-01-22T12:53:31.999Z</time>
      </trkpt>
      <trkpt lat="46.64657" lon="5.5461">
        <ele>292.25</ele>
        <time>2020-01-22T12:53:41.999Z</time>
      </trkpt>
      <trkpt lat="46.64647" lon="5.54609">
        <ele>293.36</ele>
        <time>2020-01-22T12:53:51.999Z</time>
      </trkpt>
      <trkpt lat="46.64634" lon="5.54612">
        <ele>294.09</ele>
        <time>2020-01-22T12:54:01.999Z</time>
      </trkpt>
      <trkpt lat="46.64626" lon="5.54611">
        <ele>294.83</ele>
        <time>2020-01-22T12:54:11.999Z</time>
      </trkpt>
      <trkpt lat="46.64616" lon="5.54612">
        <ele>295.9</ele>
        <time>2020-01-22T12:54:21.999Z</time>
      </trkpt>
      <trkpt lat="46.64609" lon="5.54615">
        <ele>297.54</ele>
        <time>2020-01-22T12:54:31.999Z</time>
      </trkpt>
      <trkpt lat="46.64602" lon="5.54616">
        <ele>299.12</ele>
        <time>2020-01-22T12:54:41.999Z</time>
      </trkpt>
      <trkpt lat="46.64595" lon="5.54618">
        <ele>300.46</ele>
        <time>2020-01-22T12:54:51.999Z</time>
      </trkpt>
      <trkpt lat="46.64589" lon="5.54625">
        <ele>301.94</ele>
        <time>2020-01-22T12:55:01.999Z</time>
      </trkpt>
      <trkpt lat="46.64588" lon="5.54626">
        <ele>302.16</ele>
        <time>2020-01-22T12:55:11.999Z</time>
      </trkpt>
      <trkpt lat="46.64577" lon="5.54643">
        <ele>303.91</ele>
        <time>2020-01-22T12:55:21.999Z</time>
      </trkpt>
      <trkpt lat="46.64568" lon="5.54653">
        <ele>305.84</ele>
        <time>2020-01-22T12:55:31.999Z</time>
      </trkpt>
      <trkpt lat="46.64567" lon="5.54655">
        <ele>306.2</ele>
        <time>2020-01-22T12:55:41.999Z</time>
      </trkpt>
      <trkpt lat="46.64563" lon="5.54663">
        <ele>307.37</ele>
        <time>2020-01-22T12:55:51.999Z</time>
      </trkpt>
      <trkpt lat="46.6456" lon="5.54671">
        <ele>308.05</ele>
        <time>2020-01-22T12:56:01.999Z</time>
      </trkpt>
      <trkpt lat="46.64557" lon="5.54681">
        <ele>308.73</ele>
        <time>2020-01-22T12:56:11.999Z</time>
      </trkpt>
      <trkpt lat="46.64555" lon="5.54692">
        <ele>309.17</ele>
        <time>2020-01-22T12:56:21.999Z</time>
      </trkpt>
      <trkpt lat="46.64553" lon="5.54712">
        <ele>309.49</ele>
        <time>2020-01-22T12:56:31.999Z</time>
      </trkpt>
      <trkpt lat="46.64552" lon="5.54726">
        <ele>310.38</ele>
        <time>2020-01-22T12:56:41.999Z</time>
      </trkpt>
      <trkpt lat="46.64552" lon="5.54743">
        <ele>311.98</ele>
        <time>2020-01-22T12:56:51.999Z</time>
      </trkpt>
      <trkpt lat="46.64552" lon="5.54752">
        <ele>313.79</ele>
        <time>2020-01-22T12:57:01.999Z</time>
      </trkpt>
      <trkpt lat="46.6455" lon="5.54764">
        <ele>315.23</ele>
        <time>2020-01-22T12:57:11.999Z</time>
      </trkpt>
      <trkpt lat="46.64547" lon="5.54775">
        <ele>316.55</ele>
        <time>2020-01-22T12:57:21.999Z</time>
      </trkpt>
      <trkpt lat="46.64544" lon="5.54786">
        <ele>317.52</ele>
        <time>2020-01-22T12:57:31.999Z</time>
      </trkpt>
      <trkpt lat="46.64539" lon="5.54795">
        <ele>318.25</ele>
        <time>2020-01-22T12:57:41.999Z</time>
      </trkpt>
      <trkpt lat="46.64535" lon="5.54804">
        <ele>318.85</ele>
        <time>2020-01-22T12:57:51.999Z</time>
      </trkpt>
      <trkpt lat="46.64528" lon="5.54815">
        <ele>319.96</ele>
        <time>2020-01-22T12:58:01.999Z</time>
      </trkpt>
      <trkpt lat="46.64524" lon="5.54819">
        <ele>320.77</ele>
        <time>2020-01-22T12:58:11.999Z</time>
      </trkpt>
      <trkpt lat="46.64516" lon="5.5483">
        <ele>322.17</ele>
        <time>2020-01-22T12:58:21.999Z</time>
      </trkpt>
      <trkpt lat="46.64508" lon="5.54839">
        <ele>323.61</ele>
        <time>2020-01-22T12:58:31.999Z</time>
      </trkpt>
      <trkpt lat="46.64499" lon="5.54845">
        <ele>325.57</ele>
        <time>2020-01-22T12:58:41.999Z</time>
      </trkpt>
      <trkpt lat="46.64488" lon="5.54849">
        <ele>327.45</ele>
        <time>2020-01-22T12:58:51.999Z</time>
      </trkpt>
      <trkpt lat="46.64479" lon="5.54849">
        <ele>329.13</ele>
        <time>2020-01-22T12:59:01.999Z</time>
      </trkpt>
      <trkpt lat="46.64474" lon="5.54848">
        <ele>330.26</ele>
        <time>2020-01-22T12:59:11.999Z</time>
      </trkpt>
      <trkpt lat="46.6447" lon="5.54848">
        <ele>331.01</ele>
        <time>2020-01-22T12:59:21.999Z</time>
      </trkpt>
      <trkpt lat="46.64461" lon="5.54851">
        <ele>332.41</ele>
        <time>2020-01-22T12:59:31.999Z</time>
      </trkpt>
      <trkpt lat="46.6445" lon="5.54854">
        <ele>333.96</ele>
        <time>2020-01-22T12:59:41.999Z</time>
      </trkpt>
      <trkpt lat="46.64439" lon="5.54857">
        <ele>335.08</ele>
        <time>2020-01-22T12:59:51.999Z</time>
      </trkpt>
      <trkpt lat="46.64432" lon="5.54863">
        <ele>336.59</ele>
        <time>2020-01-22T13:00:01.999Z</time>
      </trkpt>
      <trkpt lat="46.64423" lon="5.54867">
        <ele>338.23</ele>
        <time>2020-01-22T13:00:11.999Z</time>
      </trkpt>
      <trkpt lat="46.64415" lon="5.54869">
        <ele>339.62</ele>
        <time>2020-01-22T13:00:21.999Z</time>
      </trkpt>
      <trkpt lat="46.64403" lon="5.54871">
        <ele>340.6</ele>
        <time>2020-01-22T13:00:31.999Z</time>
      </trkpt>
      <trkpt lat="46.64395" lon="5.54875">
        <ele>341.62</ele>
        <time>2020-01-22T13:00:41.999Z</time>
      </trkpt>
      <trkpt lat="46.64384" lon="5.54878">
        <ele>342.88</ele>
        <time>2020-01-22T13:00:51.999Z</time>
      </trkpt>
      <trkpt lat="46.64375" lon="5.54881">
        <ele>344.29</ele>
        <time>2020-01-22T13:01:01.999Z</time>
      </trkpt>
      <trkpt lat="46.64365" lon="5.5488">
        <ele>345.49</ele>
        <time>2020-01-22T13:01:11.999Z</time>
      </trkpt>
      <trkpt lat="46.64358" lon="5.54881">
        <ele>346.34</ele>
        <time>2020-01-22T13:01:21.999Z</time>
      </trkpt>
      <trkpt lat="46.64349" lon="5.54881">
        <ele>346.87</ele>
        <time>2020-01-22T13:01:31.999Z</time>
      </trkpt>
      <trkpt lat="46.64337" lon="5.54879">
        <ele>347.56</ele>
        <time>2020-01-22T13:01:41.999Z</time>
      </trkpt>
      <trkpt lat="46.6433" lon="5.54881">
        <ele>348.03</ele>
        <time>2020-01-22T13:01:51.999Z</time>
      </trkpt>
      <trkpt lat="46.64321" lon="5.5488">
        <ele>348.75</ele>
        <time>2020-01-22T13:02:01.999Z</time>
      </trkpt>
      <trkpt lat="46.64313" lon="5.54882">
        <ele>349.72</ele>
        <time>2020-01-22T13:02:11.999Z</time>
      </trkpt>
      <trkpt lat="46.64304" lon="5.54882">
        <ele>350.64</ele>
        <time>2020-01-22T13:02:21.999Z</time>
      </trkpt>
      <trkpt lat="46.64294" lon="5.54884">
        <ele>351.54</ele>
        <time>2020-01-22T13:02:31.999Z</time>
      </trkpt>
      <trkpt lat="46.64289" lon="5.54883">
        <ele>352.14</ele>
        <time>2020-01-22T13:02:41.999Z</time>
      </trkpt>
      <trkpt lat="46.64281" lon="5.54884">
        <ele>352.66</ele>
        <time>2020-01-22T13:02:51.999Z</time>
      </trkpt>
      <trkpt lat="46.64272" lon="5.54881">
        <ele>353.09</ele>
        <time>2020-01-22T13:03:01.999Z</time>
      </trkpt>
      <trkpt lat="46.64262" lon="5.54877">
        <ele>353.46</ele>
        <time>2020-01-22T13:03:11.999Z</time>
      </trkpt>
      <trkpt lat="46.64252" lon="5.54877">
        <ele>353.8</ele>
        <time>2020-01-22T13:03:21.999Z</time>
      </trkpt>
      <trkpt lat="46.64243" lon="5.54874">
        <ele>354.19</ele>
        <time>2020-01-22T13:03:31.999Z</time>
      </trkpt>
      <trkpt lat="46.64234" lon="5.54873">
        <ele>354.75</ele>
        <time>2020-01-22T13:03:41.999Z</time>
      </trkpt>
      <trkpt lat="46.64229" lon="5.54871">
        <ele>355.44</ele>
        <time>2020-01-22T13:03:51.999Z</time>
      </trkpt>
      <trkpt lat="46.64221" lon="5.54873">
        <ele>356.13</ele>
        <time>2020-01-22T13:04:01.999Z</time>
      </trkpt>
      <trkpt lat="46.64213" lon="5.54872">
        <ele>357.26</ele>
        <time>2020-01-22T13:04:11.999Z</time>
      </trkpt>
      <trkpt lat="46.642" lon="5.5487">
        <ele>358.77</ele>
        <time>2020-01-22T13:04:21.999Z</time>
      </trkpt>
      <trkpt lat="46.64192" lon="5.54869">
        <ele>360.46</ele>
        <time>2020-01-22T13:04:31.999Z</time>
      </trkpt>
      <trkpt lat="46.64182" lon="5.54869">
        <ele>361.96</ele>
        <time>2020-01-22T13:04:41.999Z</time>
      </trkpt>
      <trkpt lat="46.64174" lon="5.54868">
        <ele>363.38</ele>
        <time>2020-01-22T13:04:51.999Z</time>
      </trkpt>
      <trkpt lat="46.64162" lon="5.54865">
        <ele>364.37</ele>
        <time>2020-01-22T13:05:01.999Z</time>
      </trkpt>
      <trkpt lat="46.64156" lon="5.54867">
        <ele>365.13</ele>
        <time>2020-01-22T13:05:11.999Z</time>
      </trkpt>
      <trkpt lat="46.64145" lon="5.54868">
        <ele>365.58</ele>
        <time>2020-01-22T13:05:21.999Z</time>
      </trkpt>
      <trkpt lat="46.64126" lon="5.54864">
        <ele>365.71</ele>
        <time>2020-01-22T13:05:31.999Z</time>
      </trkpt>
      <trkpt lat="46.64114" lon="5.54859">
        <ele>365.99</ele>
        <time>2020-01-22T13:05:41.999Z</time>
      </trkpt>
      <trkpt lat="46.64105" lon="5.54859">
        <ele>366.36</ele>
        <time>2020-01-22T13:05:51.999Z</time>
      </trkpt>
      <trkpt lat="46.64098" lon="5.54858">
        <ele>366.93</ele>
        <time>2020-01-22T13:06:01.999Z</time>
      </trkpt>
      <trkpt lat="46.64093" lon="5.54858">
        <ele>367.65</ele>
        <time>2020-01-22T13:06:11.999Z</time>
      </trkpt>
      <trkpt lat="46.64086" lon="5.54858">
        <ele>368.3</ele>
        <time>2020-01-22T13:06:21.999Z</time>
      </trkpt>
      <trkpt lat="46.64079" lon="5.54858">
        <ele>369.26</ele>
        <time>2020-01-22T13:06:31.999Z</time>
      </trkpt>
      <trkpt lat="46.64071" lon="5.54856">
        <ele>370.15</ele>
        <time>2020-01-22T13:06:41.999Z</time>
      </trkpt>
      <trkpt lat="46.64063" lon="5.54855">
        <ele>370.77</ele>
        <time>2020-01-22T13:06:51.999Z</time>
      </trkpt>
      <trkpt lat="46.64056" lon="5.54854">
        <ele>371.61</ele>
        <time>2020-01-22T13:07:01.999Z</time>
      </trkpt>
      <trkpt lat="46.64041" lon="5.54851">
        <ele>372.47</ele>
        <time>2020-01-22T13:07:11.999Z</time>
      </trkpt>
      <trkpt lat="46.64031" lon="5.5485">
        <ele>372.95</ele>
        <time>2020-01-22T13:07:21.999Z</time>
      </trkpt>
      <trkpt lat="46.64021" lon="5.54849">
        <ele>373.63</ele>
        <time>2020-01-22T13:07:31.999Z</time>
      </trkpt>
      <trkpt lat="46.64013" lon="5.5485">
        <ele>374.6</ele>
        <time>2020-01-22T13:07:41.999Z</time>
      </trkpt>
      <trkpt lat="46.64006" lon="5.54851">
        <ele>375.45</ele>
        <time>2020-01-22T13:07:51.999Z</time>
      </trkpt>
      <trkpt lat="46.64" lon="5.54851">
        <ele>376.13</ele>
        <time>2020-01-22T13:08:01.999Z</time>
      </trkpt>
      <trkpt lat="46.63992" lon="5.54852">
        <ele>376.63</ele>
        <time>2020-01-22T13:08:11.999Z</time>
      </trkpt>
      <trkpt lat="46.63984" lon="5.54854">
        <ele>377.46</ele>
        <time>2020-01-22T13:08:21.999Z</time>
      </trkpt>
      <trkpt lat="46.63977" lon="5.54856">
        <ele>378.44</ele>
        <time>2020-01-22T13:08:31.999Z</time>
      </trkpt>
      <trkpt lat="46.63967" lon="5.5486">
        <ele>379.25</ele>
        <time>2020-01-22T13:08:41.999Z</time>
      </trkpt>
      <trkpt lat="46.63956" lon="5.54863">
        <ele>380.07</ele>
        <time>2020-01-22T13:08:51.999Z</time>
      </trkpt>
      <trkpt lat="46.63948" lon="5.54868">
        <ele>380.9</ele>
        <time>2020-01-22T13:09:01.999Z</time>
      </trkpt>
      <trkpt lat="46.63939" lon="5.54873">
        <ele>381.52</ele>
        <time>2020-01-22T13:09:11.999Z</time>
      </trkpt>
      <trkpt lat="46.6393" lon="5.54877">
        <ele>382.22</ele>
        <time>2020-01-22T13:09:21.999Z</time>
      </trkpt>
      <trkpt lat="46.6392" lon="5.54879">
        <ele>383.05</ele>
        <time>2020-01-22T13:09:31.999Z</time>
      </trkpt>
      <trkpt lat="46.63908" lon="5.54885">
        <ele>383.85</ele>
        <time>2020-01-22T13:09:41.999Z</time>
      </trkpt>
      <trkpt lat="46.639" lon="5.5489">
        <ele>384.91</ele>
        <time>2020-01-22T13:09:51.999Z</time>
      </trkpt>
      <trkpt lat="46.63893" lon="5.54893">
        <ele>386.02</ele>
        <time>2020-01-22T13:10:01.999Z</time>
      </trkpt>
      <trkpt lat="46.63885" lon="5.54894">
        <ele>387.16</ele>
        <time>2020-01-22T13:10:11.999Z</time>
      </trkpt>
      <trkpt lat="46.63872" lon="5.54898">
        <ele>387.37</ele>
        <time>2020-01-22T13:10:21.999Z</time>
      </trkpt>
      <trkpt lat="46.63863" lon="5.54902">
        <ele>386.91</ele>
        <time>2020-01-22T13:10:31.999Z</time>
      </trkpt>
      <trkpt lat="46.63852" lon="5.54906">
        <ele>386.46</ele>
        <time>2020-01-22T13:10:41.999Z</time>
      </trkpt>
      <trkpt lat="46.63841" lon="5.54913">
        <ele>386.21</ele>
        <time>2020-01-22T13:10:51.999Z</time>
      </trkpt>
      <trkpt lat="46.63831" lon="5.54917">
        <ele>386.54</ele>
        <time>2020-01-22T13:11:01.999Z</time>
      </trkpt>
      <trkpt lat="46.63823" lon="5.54922">
        <ele>387.18</ele>
        <time>2020-01-22T13:11:11.999Z</time>
      </trkpt>
      <trkpt lat="46.63816" lon="5.54925">
        <ele>387.6</ele>
        <time>2020-01-22T13:11:21.999Z</time>
      </trkpt>
      <trkpt lat="46.63814" lon="5.54927">
        <ele>387.95</ele>
        <time>2020-01-22T13:11:31.999Z</time>
      </trkpt>
      <trkpt lat="46.63803" lon="5.54929">
        <ele>388.16</ele>
        <time>2020-01-22T13:11:41.999Z</time>
      </trkpt>
      <trkpt lat="46.63793" lon="5.54938">
        <ele>387.96</ele>
        <time>2020-01-22T13:11:51.999Z</time>
      </trkpt>
      <trkpt lat="46.63789" lon="5.54941">
        <ele>387.94</ele>
        <time>2020-01-22T13:12:01.999Z</time>
      </trkpt>
      <trkpt lat="46.63789" lon="5.54942">
        <ele>388.01</ele>
        <time>2020-01-22T13:12:11.999Z</time>
      </trkpt>
      <trkpt lat="46.63788" lon="5.54943">
        <ele>388.16</ele>
        <time>2020-01-22T13:12:26.999Z</time>
      </trkpt>
      <trkpt lat="46.63788" lon="5.54944">
        <ele>388.29</ele>
        <time>2020-01-22T13:12:37.999Z</time>
      </trkpt>
      <trkpt lat="46.63788" lon="5.54946">
        <ele>388.41</ele>
        <time>2020-01-22T13:12:50.999Z</time>
      </trkpt>
      <trkpt lat="46.63787" lon="5.54946">
        <ele>389.51</ele>
        <time>2020-01-22T13:13:37.999Z</time>
      </trkpt>
      <trkpt lat="46.63781" lon="5.54944">
        <ele>390.44</ele>
        <time>2020-01-22T13:13:47.999Z</time>
      </trkpt>
      <trkpt lat="46.63782" lon="5.54945">
        <ele>390.63</ele>
        <time>2020-01-22T13:14:30.999Z</time>
      </trkpt>
      <trkpt lat="46.63782" lon="5.54947">
        <ele>391.04</ele>
        <time>2020-01-22T13:15:15.999Z</time>
      </trkpt>
      <trkpt lat="46.63783" lon="5.54946">
        <ele>391.34</ele>
        <time>2020-01-22T13:15:48.999Z</time>
      </trkpt>
      <trkpt lat="46.63784" lon="5.54946">
        <ele>391.5</ele>
        <time>2020-01-22T13:16:47.999Z</time>
      </trkpt>
      <trkpt lat="46.63783" lon="5.54945">
        <ele>391.55</ele>
        <time>2020-01-22T13:17:07.999Z</time>
      </trkpt>
      <trkpt lat="46.63783" lon="5.54942">
        <ele>391.66</ele>
        <time>2020-01-22T13:17:17.999Z</time>
      </trkpt>
      <trkpt lat="46.63777" lon="5.54938">
        <ele>391.65</ele>
        <time>2020-01-22T13:17:27.999Z</time>
      </trkpt>
      <trkpt lat="46.63763" lon="5.54933">
        <ele>391.28</ele>
        <time>2020-01-22T13:17:37.999Z</time>
      </trkpt>
      <trkpt lat="46.63755" lon="5.54933">
        <ele>390.72</ele>
        <time>2020-01-22T13:17:47.999Z</time>
      </trkpt>
      <trkpt lat="46.63748" lon="5.54931">
        <ele>390.27</ele>
        <time>2020-01-22T13:17:57.999Z</time>
      </trkpt>
      <trkpt lat="46.63738" lon="5.54928">
        <ele>389.63</ele>
        <time>2020-01-22T13:18:07.999Z</time>
      </trkpt>
      <trkpt lat="46.63728" lon="5.54928">
        <ele>388.99</ele>
        <time>2020-01-22T13:18:17.999Z</time>
      </trkpt>
      <trkpt lat="46.63715" lon="5.54924">
        <ele>387.56</ele>
        <time>2020-01-22T13:18:27.999Z</time>
      </trkpt>
      <trkpt lat="46.63702" lon="5.54916">
        <ele>385.69</ele>
        <time>2020-01-22T13:18:37.999Z</time>
      </trkpt>
      <trkpt lat="46.63694" lon="5.54912">
        <ele>383.73</ele>
        <time>2020-01-22T13:18:47.999Z</time>
      </trkpt>
      <trkpt lat="46.63685" lon="5.5491">
        <ele>382.27</ele>
        <time>2020-01-22T13:18:57.999Z</time>
      </trkpt>
      <trkpt lat="46.63677" lon="5.54907">
        <ele>381.17</ele>
        <time>2020-01-22T13:19:07.999Z</time>
      </trkpt>
      <trkpt lat="46.63665" lon="5.54906">
        <ele>379.84</ele>
        <time>2020-01-22T13:19:17.999Z</time>
      </trkpt>
      <trkpt lat="46.63654" lon="5.54906">
        <ele>378.43</ele>
        <time>2020-01-22T13:19:27.999Z</time>
      </trkpt>
      <trkpt lat="46.63642" lon="5.54903">
        <ele>377.07</ele>
        <time>2020-01-22T13:19:37.999Z</time>
      </trkpt>
      <trkpt lat="46.63627" lon="5.54901">
        <ele>376.17</ele>
        <time>2020-01-22T13:19:47.999Z</time>
      </trkpt>
      <trkpt lat="46.63614" lon="5.54898">
        <ele>375.28</ele>
        <time>2020-01-22T13:19:57.999Z</time>
      </trkpt>
      <trkpt lat="46.63603" lon="5.54896">
        <ele>374.52</ele>
        <time>2020-01-22T13:20:07.999Z</time>
      </trkpt>
      <trkpt lat="46.63593" lon="5.54897">
        <ele>373.68</ele>
        <time>2020-01-22T13:20:17.999Z</time>
      </trkpt>
      <trkpt lat="46.63583" lon="5.54896">
        <ele>373.17</ele>
        <time>2020-01-22T13:20:27.999Z</time>
      </trkpt>
      <trkpt lat="46.63574" lon="5.54896">
        <ele>372.68</ele>
        <time>2020-01-22T13:20:37.999Z</time>
      </trkpt>
      <trkpt lat="46.63565" lon="5.54895">
        <ele>371.92</ele>
        <time>2020-01-22T13:20:47.999Z</time>
      </trkpt>
      <trkpt lat="46.63558" lon="5.54889">
        <ele>370.8</ele>
        <time>2020-01-22T13:20:57.999Z</time>
      </trkpt>
      <trkpt lat="46.6355" lon="5.54867">
        <ele>368.6</ele>
        <time>2020-01-22T13:21:07.999Z</time>
      </trkpt>
      <trkpt lat="46.63542" lon="5.54853">
        <ele>367.28</ele>
        <time>2020-01-22T13:21:17.999Z</time>
      </trkpt>
      <trkpt lat="46.6353" lon="5.54837">
        <ele>366.23</ele>
        <time>2020-01-22T13:21:27.999Z</time>
      </trkpt>
      <trkpt lat="46.63523" lon="5.54823">
        <ele>364.61</ele>
        <time>2020-01-22T13:21:37.999Z</time>
      </trkpt>
      <trkpt lat="46.63511" lon="5.54809">
        <ele>363.05</ele>
        <time>2020-01-22T13:21:47.999Z</time>
      </trkpt>
      <trkpt lat="46.63505" lon="5.54798">
        <ele>361.63</ele>
        <time>2020-01-22T13:21:57.999Z</time>
      </trkpt>
      <trkpt lat="46.63497" lon="5.54781">
        <ele>359.94</ele>
        <time>2020-01-22T13:22:07.999Z</time>
      </trkpt>
      <trkpt lat="46.63496" lon="5.54772">
        <ele>357.79</ele>
        <time>2020-01-22T13:22:17.999Z</time>
      </trkpt>
      <trkpt lat="46.63488" lon="5.54756">
        <ele>355.79</ele>
        <time>2020-01-22T13:22:27.999Z</time>
      </trkpt>
      <trkpt lat="46.63484" lon="5.54751">
        <ele>355.25</ele>
        <time>2020-01-22T13:22:37.999Z</time>
      </trkpt>
      <trkpt lat="46.63475" lon="5.54747">
        <ele>354.16</ele>
        <time>2020-01-22T13:22:47.999Z</time>
      </trkpt>
      <trkpt lat="46.63462" lon="5.54747">
        <ele>352.91</ele>
        <time>2020-01-22T13:22:57.999Z</time>
      </trkpt>
      <trkpt lat="46.63448" lon="5.54746">
        <ele>351.33</ele>
        <time>2020-01-22T13:23:07.999Z</time>
      </trkpt>
      <trkpt lat="46.63433" lon="5.54747">
        <ele>349.79</ele>
        <time>2020-01-22T13:23:17.999Z</time>
      </trkpt>
      <trkpt lat="46.63421" lon="5.54748">
        <ele>348.53</ele>
        <time>2020-01-22T13:23:27.999Z</time>
      </trkpt>
      <trkpt lat="46.63419" lon="5.54747">
        <ele>347.93</ele>
        <time>2020-01-22T13:23:37.999Z</time>
      </trkpt>
      <trkpt lat="46.63418" lon="5.54747">
        <ele>347.22</ele>
        <time>2020-01-22T13:24:09.999Z</time>
      </trkpt>
      <trkpt lat="46.6341" lon="5.54736">
        <ele>345.62</ele>
        <time>2020-01-22T13:24:19.999Z</time>
      </trkpt>
      <trkpt lat="46.63399" lon="5.54735">
        <ele>344.15</ele>
        <time>2020-01-22T13:24:29.999Z</time>
      </trkpt>
      <trkpt lat="46.63387" lon="5.54735">
        <ele>342.88</ele>
        <time>2020-01-22T13:24:39.999Z</time>
      </trkpt>
      <trkpt lat="46.63378" lon="5.54737">
        <ele>341.68</ele>
        <time>2020-01-22T13:24:49.999Z</time>
      </trkpt>
      <trkpt lat="46.63368" lon="5.54738">
        <ele>340.34</ele>
        <time>2020-01-22T13:24:59.999Z</time>
      </trkpt>
      <trkpt lat="46.63357" lon="5.54737">
        <ele>339.02</ele>
        <time>2020-01-22T13:25:09.999Z</time>
      </trkpt>
      <trkpt lat="46.63348" lon="5.54737">
        <ele>337.76</ele>
        <time>2020-01-22T13:25:19.999Z</time>
      </trkpt>
      <trkpt lat="46.63337" lon="5.54741">
        <ele>336.14</ele>
        <time>2020-01-22T13:25:29.999Z</time>
      </trkpt>
      <trkpt lat="46.63325" lon="5.54749">
        <ele>334.32</ele>
        <time>2020-01-22T13:25:39.999Z</time>
      </trkpt>
      <trkpt lat="46.63312" lon="5.5475">
        <ele>332.76</ele>
        <time>2020-01-22T13:25:49.999Z</time>
      </trkpt>
      <trkpt lat="46.63302" lon="5.54752">
        <ele>331.11</ele>
        <time>2020-01-22T13:25:59.999Z</time>
      </trkpt>
      <trkpt lat="46.63292" lon="5.54749">
        <ele>329.26</ele>
        <time>2020-01-22T13:26:09.999Z</time>
      </trkpt>
      <trkpt lat="46.63277" lon="5.54743">
        <ele>327.34</ele>
        <time>2020-01-22T13:26:19.999Z</time>
      </trkpt>
      <trkpt lat="46.63261" lon="5.5474">
        <ele>325.37</ele>
        <time>2020-01-22T13:26:29.999Z</time>
      </trkpt>
      <trkpt lat="46.63247" lon="5.54741">
        <ele>324.56</ele>
        <time>2020-01-22T13:26:39.999Z</time>
      </trkpt>
      <trkpt lat="46.63242" lon="5.54742">
        <ele>324.16</ele>
        <time>2020-01-22T13:26:49.999Z</time>
      </trkpt>
      <trkpt lat="46.63229" lon="5.54742">
        <ele>322.91</ele>
        <time>2020-01-22T13:26:59.999Z</time>
      </trkpt>
      <trkpt lat="46.63216" lon="5.54734">
        <ele>321.28</ele>
        <time>2020-01-22T13:27:09.999Z</time>
      </trkpt>
      <trkpt lat="46.63201" lon="5.54721">
        <ele>318.95</ele>
        <time>2020-01-22T13:27:19.999Z</time>
      </trkpt>
      <trkpt lat="46.63186" lon="5.54717">
        <ele>317.16</ele>
        <time>2020-01-22T13:27:29.999Z</time>
      </trkpt>
      <trkpt lat="46.63175" lon="5.54712">
        <ele>316.06</ele>
        <time>2020-01-22T13:27:39.999Z</time>
      </trkpt>
      <trkpt lat="46.63163" lon="5.54706">
        <ele>315.24</ele>
        <time>2020-01-22T13:27:49.999Z</time>
      </trkpt>
      <trkpt lat="46.6315" lon="5.54703">
        <ele>314.56</ele>
        <time>2020-01-22T13:27:59.999Z</time>
      </trkpt>
      <trkpt lat="46.63137" lon="5.54701">
        <ele>313.74</ele>
        <time>2020-01-22T13:28:09.999Z</time>
      </trkpt>
      <trkpt lat="46.63125" lon="5.54697">
        <ele>313.09</ele>
        <time>2020-01-22T13:28:19.999Z</time>
      </trkpt>
      <trkpt lat="46.63113" lon="5.5469">
        <ele>313.01</ele>
        <time>2020-01-22T13:28:29.999Z</time>
      </trkpt>
      <trkpt lat="46.63103" lon="5.54679">
        <ele>312.98</ele>
        <time>2020-01-22T13:28:39.999Z</time>
      </trkpt>
      <trkpt lat="46.6309" lon="5.54672">
        <ele>313.04</ele>
        <time>2020-01-22T13:28:49.999Z</time>
      </trkpt>
      <trkpt lat="46.63082" lon="5.54668">
        <ele>312.62</ele>
        <time>2020-01-22T13:28:59.999Z</time>
      </trkpt>
      <trkpt lat="46.63072" lon="5.54661">
        <ele>311.53</ele>
        <time>2020-01-22T13:29:09.999Z</time>
      </trkpt>
      <trkpt lat="46.63057" lon="5.5466">
        <ele>310.13</ele>
        <time>2020-01-22T13:29:19.999Z</time>
      </trkpt>
      <trkpt lat="46.63051" lon="5.5465">
        <ele>308.92</ele>
        <time>2020-01-22T13:29:29.999Z</time>
      </trkpt>
      <trkpt lat="46.63049" lon="5.54647">
        <ele>308.68</ele>
        <time>2020-01-22T13:29:39.999Z</time>
      </trkpt>
      <trkpt lat="46.63049" lon="5.54648">
        <ele>308.66</ele>
        <time>2020-01-22T13:29:49.999Z</time>
      </trkpt>
      <trkpt lat="46.63049" lon="5.5465">
        <ele>308.57</ele>
        <time>2020-01-22T13:30:23.999Z</time>
      </trkpt>
      <trkpt lat="46.6305" lon="5.54652">
        <ele>308.54</ele>
        <time>2020-01-22T13:30:33.999Z</time>
      </trkpt>
      <trkpt lat="46.6305" lon="5.54654">
        <ele>308.41</ele>
        <time>2020-01-22T13:30:43.999Z</time>
      </trkpt>
      <trkpt lat="46.6305" lon="5.54655">
        <ele>308.23</ele>
        <time>2020-01-22T13:31:08.999Z</time>
      </trkpt>
      <trkpt lat="46.63051" lon="5.54656">
        <ele>308.18</ele>
        <time>2020-01-22T13:31:18.999Z</time>
      </trkpt>
      <trkpt lat="46.63052" lon="5.54656">
        <ele>308.4</ele>
        <time>2020-01-22T13:31:29.999Z</time>
      </trkpt>
      <trkpt lat="46.63049" lon="5.54657">
        <ele>308.44</ele>
        <time>2020-01-22T13:31:39.999Z</time>
      </trkpt>
      <trkpt lat="46.63048" lon="5.54659">
        <ele>308.34</ele>
        <time>2020-01-22T13:31:49.999Z</time>
      </trkpt>
      <trkpt lat="46.63043" lon="5.54666">
        <ele>308.19</ele>
        <time>2020-01-22T13:31:59.999Z</time>
      </trkpt>
      <trkpt lat="46.63041" lon="5.54668">
        <ele>308.33</ele>
        <time>2020-01-22T13:32:09.999Z</time>
      </trkpt>
      <trkpt lat="46.63036" lon="5.54676">
        <ele>308.82</ele>
        <time>2020-01-22T13:32:19.999Z</time>
      </trkpt>
      <trkpt lat="46.63031" lon="5.54682">
        <ele>309.09</ele>
        <time>2020-01-22T13:32:29.999Z</time>
      </trkpt>
      <trkpt lat="46.63024" lon="5.54688">
        <ele>309.09</ele>
        <time>2020-01-22T13:32:39.999Z</time>
      </trkpt>
      <trkpt lat="46.63013" lon="5.54693">
        <ele>308.74</ele>
        <time>2020-01-22T13:32:49.999Z</time>
      </trkpt>
      <trkpt lat="46.63001" lon="5.54697">
        <ele>308.52</ele>
        <time>2020-01-22T13:32:59.999Z</time>
      </trkpt>
      <trkpt lat="46.62991" lon="5.54694">
        <ele>308.49</ele>
        <time>2020-01-22T13:33:09.999Z</time>
      </trkpt>
      <trkpt lat="46.62979" lon="5.54695">
        <ele>308.94</ele>
        <time>2020-01-22T13:33:19.999Z</time>
      </trkpt>
      <trkpt lat="46.62965" lon="5.54694">
        <ele>309.75</ele>
        <time>2020-01-22T13:33:29.999Z</time>
      </trkpt>
      <trkpt lat="46.62959" lon="5.54699">
        <ele>311.14</ele>
        <time>2020-01-22T13:33:39.999Z</time>
      </trkpt>
      <trkpt lat="46.62953" lon="5.54704">
        <ele>312.62</ele>
        <time>2020-01-22T13:33:49.999Z</time>
      </trkpt>
      <trkpt lat="46.62943" lon="5.54708">
        <ele>314.19</ele>
        <time>2020-01-22T13:33:59.999Z</time>
      </trkpt>
      <trkpt lat="46.62928" lon="5.54714">
        <ele>316.1</ele>
        <time>2020-01-22T13:34:09.999Z</time>
      </trkpt>
      <trkpt lat="46.62911" lon="5.54718">
        <ele>317.47</ele>
        <time>2020-01-22T13:34:19.999Z</time>
      </trkpt>
      <trkpt lat="46.62902" lon="5.54718">
        <ele>318.2</ele>
        <time>2020-01-22T13:34:29.999Z</time>
      </trkpt>
      <trkpt lat="46.6289" lon="5.54711">
        <ele>320.19</ele>
        <time>2020-01-22T13:34:39.999Z</time>
      </trkpt>
      <trkpt lat="46.62874" lon="5.54724">
        <ele>321.73</ele>
        <time>2020-01-22T13:34:49.999Z</time>
      </trkpt>
      <trkpt lat="46.62865" lon="5.54732">
        <ele>321.32</ele>
        <time>2020-01-22T13:34:59.999Z</time>
      </trkpt>
      <trkpt lat="46.62852" lon="5.54752">
        <ele>320.03</ele>
        <time>2020-01-22T13:35:09.999Z</time>
      </trkpt>
      <trkpt lat="46.62846" lon="5.54765">
        <ele>318.82</ele>
        <time>2020-01-22T13:35:19.999Z</time>
      </trkpt>
      <trkpt lat="46.62843" lon="5.54776">
        <ele>317.68</ele>
        <time>2020-01-22T13:35:29.999Z</time>
      </trkpt>
      <trkpt lat="46.62837" lon="5.54794">
        <ele>317.05</ele>
        <time>2020-01-22T13:35:39.999Z</time>
      </trkpt>
      <trkpt lat="46.62832" lon="5.548">
        <ele>317.19</ele>
        <time>2020-01-22T13:35:49.999Z</time>
      </trkpt>
      <trkpt lat="46.62825" lon="5.54808">
        <ele>318.36</ele>
        <time>2020-01-22T13:35:59.999Z</time>
      </trkpt>
      <trkpt lat="46.62818" lon="5.54813">
        <ele>319.3</ele>
        <time>2020-01-22T13:36:09.999Z</time>
      </trkpt>
      <trkpt lat="46.6281" lon="5.54822">
        <ele>319.55</ele>
        <time>2020-01-22T13:36:19.999Z</time>
      </trkpt>
      <trkpt lat="46.62803" lon="5.54831">
        <ele>319.82</ele>
        <time>2020-01-22T13:36:29.999Z</time>
      </trkpt>
      <trkpt lat="46.62799" lon="5.54834">
        <ele>320.72</ele>
        <time>2020-01-22T13:36:39.999Z</time>
      </trkpt>
      <trkpt lat="46.62792" lon="5.54844">
        <ele>321.31</ele>
        <time>2020-01-22T13:36:49.999Z</time>
      </trkpt>
      <trkpt lat="46.62783" lon="5.54857">
        <ele>321.71</ele>
        <time>2020-01-22T13:36:59.999Z</time>
      </trkpt>
      <trkpt lat="46.62781" lon="5.54859">
        <ele>321.97</ele>
        <time>2020-01-22T13:37:09.999Z</time>
      </trkpt>
      <trkpt lat="46.62778" lon="5.54861">
        <ele>322.11</ele>
        <time>2020-01-22T13:37:19.999Z</time>
      </trkpt>
      <trkpt lat="46.62772" lon="5.54867">
        <ele>321.92</ele>
        <time>2020-01-22T13:37:29.999Z</time>
      </trkpt>
      <trkpt lat="46.62767" lon="5.54876">
        <ele>321.43</ele>
        <time>2020-01-22T13:37:39.999Z</time>
      </trkpt>
      <trkpt lat="46.62763" lon="5.54886">
        <ele>321.01</ele>
        <time>2020-01-22T13:37:49.999Z</time>
      </trkpt>
      <trkpt lat="46.62758" lon="5.54891">
        <ele>320.32</ele>
        <time>2020-01-22T13:37:59.999Z</time>
      </trkpt>
      <trkpt lat="46.62748" lon="5.54901">
        <ele>319.63</ele>
        <time>2020-01-22T13:38:09.999Z</time>
      </trkpt>
      <trkpt lat="46.62738" lon="5.5491">
        <ele>318.97</ele>
        <time>2020-01-22T13:38:19.999Z</time>
      </trkpt>
      <trkpt lat="46.62731" lon="5.54907">
        <ele>318.46</ele>
        <time>2020-01-22T13:38:29.999Z</time>
      </trkpt>
      <trkpt lat="46.62718" lon="5.54907">
        <ele>319.13</ele>
        <time>2020-01-22T13:38:39.999Z</time>
      </trkpt>
      <trkpt lat="46.62713" lon="5.54906">
        <ele>320.57</ele>
        <time>2020-01-22T13:38:49.999Z</time>
      </trkpt>
      <trkpt lat="46.62707" lon="5.54909">
        <ele>321.92</ele>
        <time>2020-01-22T13:38:59.999Z</time>
      </trkpt>
      <trkpt lat="46.62694" lon="5.54917">
        <ele>325.09</ele>
        <time>2020-01-22T13:39:09.999Z</time>
      </trkpt>
      <trkpt lat="46.62689" lon="5.54916">
        <ele>327.4</ele>
        <time>2020-01-22T13:39:19.999Z</time>
      </trkpt>
      <trkpt lat="46.62683" lon="5.54915">
        <ele>330.28</ele>
        <time>2020-01-22T13:39:29.999Z</time>
      </trkpt>
      <trkpt lat="46.62671" lon="5.54919">
        <ele>333.63</ele>
        <time>2020-01-22T13:39:39.999Z</time>
      </trkpt>
      <trkpt lat="46.62663" lon="5.54922">
        <ele>337.07</ele>
        <time>2020-01-22T13:39:49.999Z</time>
      </trkpt>
      <trkpt lat="46.62658" lon="5.54923">
        <ele>339.54</ele>
        <time>2020-01-22T13:39:59.999Z</time>
      </trkpt>
      <trkpt lat="46.62652" lon="5.54927">
        <ele>340.72</ele>
        <time>2020-01-22T13:40:09.999Z</time>
      </trkpt>
      <trkpt lat="46.62648" lon="5.5493">
        <ele>341.76</ele>
        <time>2020-01-22T13:40:19.999Z</time>
      </trkpt>
      <trkpt lat="46.62643" lon="5.54932">
        <ele>342.48</ele>
        <time>2020-01-22T13:40:29.999Z</time>
      </trkpt>
      <trkpt lat="46.62637" lon="5.54932">
        <ele>342.91</ele>
        <time>2020-01-22T13:40:39.999Z</time>
      </trkpt>
      <trkpt lat="46.62625" lon="5.54937">
        <ele>343.28</ele>
        <time>2020-01-22T13:40:49.999Z</time>
      </trkpt>
      <trkpt lat="46.62615" lon="5.54939">
        <ele>344.05</ele>
        <time>2020-01-22T13:40:59.999Z</time>
      </trkpt>
      <trkpt lat="46.62609" lon="5.54941">
        <ele>345.11</ele>
        <time>2020-01-22T13:41:09.999Z</time>
      </trkpt>
      <trkpt lat="46.62602" lon="5.54945">
        <ele>346.2</ele>
        <time>2020-01-22T13:41:19.999Z</time>
      </trkpt>
      <trkpt lat="46.62597" lon="5.54948">
        <ele>347.15</ele>
        <time>2020-01-22T13:41:29.999Z</time>
      </trkpt>
      <trkpt lat="46.62588" lon="5.54956">
        <ele>349.13</ele>
        <time>2020-01-22T13:41:39.999Z</time>
      </trkpt>
      <trkpt lat="46.62581" lon="5.54963">
        <ele>350.94</ele>
        <time>2020-01-22T13:41:49.999Z</time>
      </trkpt>
      <trkpt lat="46.62572" lon="5.54967">
        <ele>352.64</ele>
        <time>2020-01-22T13:41:59.999Z</time>
      </trkpt>
      <trkpt lat="46.62564" lon="5.54974">
        <ele>355</ele>
        <time>2020-01-22T13:42:09.999Z</time>
      </trkpt>
      <trkpt lat="46.62553" lon="5.54983">
        <ele>357.19</ele>
        <time>2020-01-22T13:42:19.999Z</time>
      </trkpt>
      <trkpt lat="46.62543" lon="5.5499">
        <ele>358.39</ele>
        <time>2020-01-22T13:42:29.999Z</time>
      </trkpt>
      <trkpt lat="46.62535" lon="5.54997">
        <ele>360</ele>
        <time>2020-01-22T13:42:39.999Z</time>
      </trkpt>
      <trkpt lat="46.62529" lon="5.54999">
        <ele>361.92</ele>
        <time>2020-01-22T13:42:49.999Z</time>
      </trkpt>
      <trkpt lat="46.62523" lon="5.55005">
        <ele>363.67</ele>
        <time>2020-01-22T13:42:59.999Z</time>
      </trkpt>
      <trkpt lat="46.62514" lon="5.55011">
        <ele>364.85</ele>
        <time>2020-01-22T13:43:09.999Z</time>
      </trkpt>
      <trkpt lat="46.62511" lon="5.55016">
        <ele>364.8</ele>
        <time>2020-01-22T13:43:19.999Z</time>
      </trkpt>
      <trkpt lat="46.62506" lon="5.55022">
        <ele>364.53</ele>
        <time>2020-01-22T13:43:29.999Z</time>
      </trkpt>
      <trkpt lat="46.62499" lon="5.55032">
        <ele>364.54</ele>
        <time>2020-01-22T13:43:39.999Z</time>
      </trkpt>
      <trkpt lat="46.62498" lon="5.55032">
        <ele>365.21</ele>
        <time>2020-01-22T13:43:54.999Z</time>
      </trkpt>
      <trkpt lat="46.62496" lon="5.55031">
        <ele>365.44</ele>
        <time>2020-01-22T13:44:04.999Z</time>
      </trkpt>
      <trkpt lat="46.62494" lon="5.55025">
        <ele>366.09</ele>
        <time>2020-01-22T13:44:14.999Z</time>
      </trkpt>
      <trkpt lat="46.62493" lon="5.55023">
        <ele>366.86</ele>
        <time>2020-01-22T13:44:37.999Z</time>
      </trkpt>
      <trkpt lat="46.62493" lon="5.55022">
        <ele>367.17</ele>
        <time>2020-01-22T13:44:48.999Z</time>
      </trkpt>
      <trkpt lat="46.62495" lon="5.5502">
        <ele>367.66</ele>
        <time>2020-01-22T13:44:58.999Z</time>
      </trkpt>
      <trkpt lat="46.62493" lon="5.5502">
        <ele>368.06</ele>
        <time>2020-01-22T13:45:08.999Z</time>
      </trkpt>
      <trkpt lat="46.62492" lon="5.55019">
        <ele>368.58</ele>
        <time>2020-01-22T13:45:25.999Z</time>
      </trkpt>
      <trkpt lat="46.62493" lon="5.55018">
        <ele>368.96</ele>
        <time>2020-01-22T13:45:38.999Z</time>
      </trkpt>
      <trkpt lat="46.6249" lon="5.55018">
        <ele>370.26</ele>
        <time>2020-01-22T13:45:48.999Z</time>
      </trkpt>
      <trkpt lat="46.62484" lon="5.55025">
        <ele>372.38</ele>
        <time>2020-01-22T13:45:58.999Z</time>
      </trkpt>
      <trkpt lat="46.6248" lon="5.5503">
        <ele>373.24</ele>
        <time>2020-01-22T13:46:08.999Z</time>
      </trkpt>
      <trkpt lat="46.62476" lon="5.55034">
        <ele>373.45</ele>
        <time>2020-01-22T13:46:18.999Z</time>
      </trkpt>
      <trkpt lat="46.62466" lon="5.55048">
        <ele>374.79</ele>
        <time>2020-01-22T13:46:28.999Z</time>
      </trkpt>
      <trkpt lat="46.62463" lon="5.55053">
        <ele>375.51</ele>
        <time>2020-01-22T13:46:38.999Z</time>
      </trkpt>
      <trkpt lat="46.62461" lon="5.55057">
        <ele>375.93</ele>
        <time>2020-01-22T13:46:48.999Z</time>
      </trkpt>
      <trkpt lat="46.62457" lon="5.55063">
        <ele>376.82</ele>
        <time>2020-01-22T13:46:58.999Z</time>
      </trkpt>
      <trkpt lat="46.6245" lon="5.55073">
        <ele>378.03</ele>
        <time>2020-01-22T13:47:08.999Z</time>
      </trkpt>
      <trkpt lat="46.62448" lon="5.55076">
        <ele>378.54</ele>
        <time>2020-01-22T13:47:18.999Z</time>
      </trkpt>
      <trkpt lat="46.6244" lon="5.55087">
        <ele>379.91</ele>
        <time>2020-01-22T13:47:28.999Z</time>
      </trkpt>
      <trkpt lat="46.62432" lon="5.55099">
        <ele>381.25</ele>
        <time>2020-01-22T13:47:38.999Z</time>
      </trkpt>
      <trkpt lat="46.62429" lon="5.55111">
        <ele>382.17</ele>
        <time>2020-01-22T13:47:48.999Z</time>
      </trkpt>
      <trkpt lat="46.62426" lon="5.55118">
        <ele>382.85</ele>
        <time>2020-01-22T13:47:58.999Z</time>
      </trkpt>
      <trkpt lat="46.62428" lon="5.55115">
        <ele>383.43</ele>
        <time>2020-01-22T13:48:08.999Z</time>
      </trkpt>
      <trkpt lat="46.62434" lon="5.5511">
        <ele>384.04</ele>
        <time>2020-01-22T13:48:18.999Z</time>
      </trkpt>
      <trkpt lat="46.62436" lon="5.55109">
        <ele>385.58</ele>
        <time>2020-01-22T13:48:28.999Z</time>
      </trkpt>
      <trkpt lat="46.62442" lon="5.55113">
        <ele>386.76</ele>
        <time>2020-01-22T13:48:38.999Z</time>
      </trkpt>
      <trkpt lat="46.62444" lon="5.55108">
        <ele>387.92</ele>
        <time>2020-01-22T13:48:48.999Z</time>
      </trkpt>
      <trkpt lat="46.62453" lon="5.55101">
        <ele>388.96</ele>
        <time>2020-01-22T13:48:58.999Z</time>
      </trkpt>
      <trkpt lat="46.62453" lon="5.55104">
        <ele>389.36</ele>
        <time>2020-01-22T13:49:08.999Z</time>
      </trkpt>
      <trkpt lat="46.62453" lon="5.55105">
        <ele>390.01</ele>
        <time>2020-01-22T13:49:32.999Z</time>
      </trkpt>
      <trkpt lat="46.62453" lon="5.55107">
        <ele>390.6</ele>
        <time>2020-01-22T13:49:57.999Z</time>
      </trkpt>
      <trkpt lat="46.62454" lon="5.55109">
        <ele>391.19</ele>
        <time>2020-01-22T13:50:07.999Z</time>
      </trkpt>
      <trkpt lat="46.62453" lon="5.5511">
        <ele>391.61</ele>
        <time>2020-01-22T13:50:21.999Z</time>
      </trkpt>
      <trkpt lat="46.62456" lon="5.55111">
        <ele>392.98</ele>
        <time>2020-01-22T13:50:31.999Z</time>
      </trkpt>
      <trkpt lat="46.62455" lon="5.55111">
        <ele>393.22</ele>
        <time>2020-01-22T13:50:43.999Z</time>
      </trkpt>
      <trkpt lat="46.62455" lon="5.55112">
        <ele>393.38</ele>
        <time>2020-01-22T13:51:01.999Z</time>
      </trkpt>
      <trkpt lat="46.62454" lon="5.55113">
        <ele>393.64</ele>
        <time>2020-01-22T13:51:33.999Z</time>
      </trkpt>
      <trkpt lat="46.62453" lon="5.55117">
        <ele>393.64</ele>
        <time>2020-01-22T13:51:43.999Z</time>
      </trkpt>
      <trkpt lat="46.62455" lon="5.55115">
        <ele>394.04</ele>
        <time>2020-01-22T13:52:00.999Z</time>
      </trkpt>
      <trkpt lat="46.62457" lon="5.55113">
        <ele>394.22</ele>
        <time>2020-01-22T13:52:10.999Z</time>
      </trkpt>
      <trkpt lat="46.62458" lon="5.55111">
        <ele>394.29</ele>
        <time>2020-01-22T13:52:20.999Z</time>
      </trkpt>
      <trkpt lat="46.62459" lon="5.55111">
        <ele>394.55</ele>
        <time>2020-01-22T13:52:47.999Z</time>
      </trkpt>
      <trkpt lat="46.62458" lon="5.55113">
        <ele>394.65</ele>
        <time>2020-01-22T13:52:57.999Z</time>
      </trkpt>
      <trkpt lat="46.6246" lon="5.55114">
        <ele>394.99</ele>
        <time>2020-01-22T13:53:07.999Z</time>
      </trkpt>
      <trkpt lat="46.62458" lon="5.55117">
        <ele>395.14</ele>
        <time>2020-01-22T13:53:17.999Z</time>
      </trkpt>
      <trkpt lat="46.62453" lon="5.55121">
        <ele>395.54</ele>
        <time>2020-01-22T13:53:27.999Z</time>
      </trkpt>
      <trkpt lat="46.62446" lon="5.55134">
        <ele>395.72</ele>
        <time>2020-01-22T13:53:37.999Z</time>
      </trkpt>
      <trkpt lat="46.62456" lon="5.55142">
        <ele>396.63</ele>
        <time>2020-01-22T13:53:47.999Z</time>
      </trkpt>
      <trkpt lat="46.62463" lon="5.55139">
        <ele>397.43</ele>
        <time>2020-01-22T13:53:57.999Z</time>
      </trkpt>
      <trkpt lat="46.62471" lon="5.55131">
        <ele>398.1</ele>
        <time>2020-01-22T13:54:07.999Z</time>
      </trkpt>
      <trkpt lat="46.62477" lon="5.55118">
        <ele>398.52</ele>
        <time>2020-01-22T13:54:17.999Z</time>
      </trkpt>
      <trkpt lat="46.62483" lon="5.55111">
        <ele>398.77</ele>
        <time>2020-01-22T13:54:27.999Z</time>
      </trkpt>
      <trkpt lat="46.62492" lon="5.55103">
        <ele>399.14</ele>
        <time>2020-01-22T13:54:37.999Z</time>
      </trkpt>
      <trkpt lat="46.625" lon="5.55098">
        <ele>399.76</ele>
        <time>2020-01-22T13:54:47.999Z</time>
      </trkpt>
      <trkpt lat="46.62514" lon="5.55093">
        <ele>400.71</ele>
        <time>2020-01-22T13:54:57.999Z</time>
      </trkpt>
      <trkpt lat="46.62522" lon="5.55091">
        <ele>401.83</ele>
        <time>2020-01-22T13:55:07.999Z</time>
      </trkpt>
      <trkpt lat="46.6253" lon="5.55087">
        <ele>402.67</ele>
        <time>2020-01-22T13:55:17.999Z</time>
      </trkpt>
      <trkpt lat="46.62535" lon="5.55086">
        <ele>403.17</ele>
        <time>2020-01-22T13:55:27.999Z</time>
      </trkpt>
      <trkpt lat="46.62547" lon="5.55084">
        <ele>403.6</ele>
        <time>2020-01-22T13:55:37.999Z</time>
      </trkpt>
      <trkpt lat="46.6256" lon="5.55081">
        <ele>404.44</ele>
        <time>2020-01-22T13:55:47.999Z</time>
      </trkpt>
      <trkpt lat="46.62568" lon="5.5508">
        <ele>405.54</ele>
        <time>2020-01-22T13:55:57.999Z</time>
      </trkpt>
      <trkpt lat="46.62578" lon="5.55077">
        <ele>406.46</ele>
        <time>2020-01-22T13:56:07.999Z</time>
      </trkpt>
      <trkpt lat="46.62587" lon="5.55075">
        <ele>407.44</ele>
        <time>2020-01-22T13:56:17.999Z</time>
      </trkpt>
      <trkpt lat="46.62598" lon="5.55073">
        <ele>408.54</ele>
        <time>2020-01-22T13:56:27.999Z</time>
      </trkpt>
      <trkpt lat="46.62606" lon="5.55071">
        <ele>409.37</ele>
        <time>2020-01-22T13:56:37.999Z</time>
      </trkpt>
      <trkpt lat="46.62615" lon="5.5507">
        <ele>410.06</ele>
        <time>2020-01-22T13:56:47.999Z</time>
      </trkpt>
      <trkpt lat="46.62623" lon="5.55072">
        <ele>410.68</ele>
        <time>2020-01-22T13:56:57.999Z</time>
      </trkpt>
      <trkpt lat="46.62631" lon="5.55073">
        <ele>411.52</ele>
        <time>2020-01-22T13:57:07.999Z</time>
      </trkpt>
      <trkpt lat="46.6264" lon="5.55072">
        <ele>412.45</ele>
        <time>2020-01-22T13:57:17.999Z</time>
      </trkpt>
      <trkpt lat="46.62649" lon="5.5507">
        <ele>413.07</ele>
        <time>2020-01-22T13:57:27.999Z</time>
      </trkpt>
      <trkpt lat="46.62658" lon="5.55067">
        <ele>414.14</ele>
        <time>2020-01-22T13:57:37.999Z</time>
      </trkpt>
      <trkpt lat="46.62668" lon="5.55063">
        <ele>414.92</ele>
        <time>2020-01-22T13:57:47.999Z</time>
      </trkpt>
      <trkpt lat="46.62678" lon="5.55057">
        <ele>415.33</ele>
        <time>2020-01-22T13:57:57.999Z</time>
      </trkpt>
      <trkpt lat="46.62688" lon="5.55056">
        <ele>415.68</ele>
        <time>2020-01-22T13:58:07.999Z</time>
      </trkpt>
      <trkpt lat="46.62695" lon="5.55049">
        <ele>416.9</ele>
        <time>2020-01-22T13:58:17.999Z</time>
      </trkpt>
      <trkpt lat="46.627" lon="5.55048">
        <ele>418.07</ele>
        <time>2020-01-22T13:58:27.999Z</time>
      </trkpt>
      <trkpt lat="46.6271" lon="5.55051">
        <ele>419.23</ele>
        <time>2020-01-22T13:58:37.999Z</time>
      </trkpt>
      <trkpt lat="46.62721" lon="5.55056">
        <ele>421.09</ele>
        <time>2020-01-22T13:58:47.999Z</time>
      </trkpt>
      <trkpt lat="46.6273" lon="5.55052">
        <ele>422.13</ele>
        <time>2020-01-22T13:58:57.999Z</time>
      </trkpt>
      <trkpt lat="46.62732" lon="5.55051">
        <ele>422.56</ele>
        <time>2020-01-22T13:59:07.999Z</time>
      </trkpt>
      <trkpt lat="46.6274" lon="5.55053">
        <ele>423.66</ele>
        <time>2020-01-22T13:59:17.999Z</time>
      </trkpt>
      <trkpt lat="46.62749" lon="5.55051">
        <ele>424.84</ele>
        <time>2020-01-22T13:59:27.999Z</time>
      </trkpt>
      <trkpt lat="46.6276" lon="5.55052">
        <ele>424.84</ele>
        <time>2020-01-22T13:59:37.999Z</time>
      </trkpt>
      <trkpt lat="46.62767" lon="5.55051">
        <ele>425.8</ele>
        <time>2020-01-22T13:59:47.999Z</time>
      </trkpt>
      <trkpt lat="46.62775" lon="5.55048">
        <ele>426.63</ele>
        <time>2020-01-22T13:59:57.999Z</time>
      </trkpt>
      <trkpt lat="46.62785" lon="5.55046">
        <ele>427.4</ele>
        <time>2020-01-22T14:00:07.999Z</time>
      </trkpt>
      <trkpt lat="46.62791" lon="5.55041">
        <ele>428.64</ele>
        <time>2020-01-22T14:00:17.999Z</time>
      </trkpt>
      <trkpt lat="46.628" lon="5.5504">
        <ele>429.53</ele>
        <time>2020-01-22T14:00:27.999Z</time>
      </trkpt>
      <trkpt lat="46.6281" lon="5.55034">
        <ele>430.03</ele>
        <time>2020-01-22T14:00:37.999Z</time>
      </trkpt>
      <trkpt lat="46.62823" lon="5.55032">
        <ele>429.64</ele>
        <time>2020-01-22T14:00:47.999Z</time>
      </trkpt>
      <trkpt lat="46.62833" lon="5.5503">
        <ele>429.62</ele>
        <time>2020-01-22T14:00:57.999Z</time>
      </trkpt>
      <trkpt lat="46.62842" lon="5.55025">
        <ele>429.39</ele>
        <time>2020-01-22T14:01:07.999Z</time>
      </trkpt>
      <trkpt lat="46.62852" lon="5.55016">
        <ele>429.2</ele>
        <time>2020-01-22T14:01:17.999Z</time>
      </trkpt>
      <trkpt lat="46.62854" lon="5.55014">
        <ele>428.83</ele>
        <time>2020-01-22T14:01:27.999Z</time>
      </trkpt>
      <trkpt lat="46.62857" lon="5.5501">
        <ele>429.1</ele>
        <time>2020-01-22T14:01:37.999Z</time>
      </trkpt>
      <trkpt lat="46.62865" lon="5.55002">
        <ele>430.4</ele>
        <time>2020-01-22T14:01:47.999Z</time>
      </trkpt>
      <trkpt lat="46.62871" lon="5.54996">
        <ele>431.76</ele>
        <time>2020-01-22T14:01:57.999Z</time>
      </trkpt>
      <trkpt lat="46.62873" lon="5.54991">
        <ele>432.95</ele>
        <time>2020-01-22T14:02:07.999Z</time>
      </trkpt>
      <trkpt lat="46.62877" lon="5.54987">
        <ele>433.52</ele>
        <time>2020-01-22T14:02:17.999Z</time>
      </trkpt>
      <trkpt lat="46.62883" lon="5.54983">
        <ele>434.4</ele>
        <time>2020-01-22T14:02:27.999Z</time>
      </trkpt>
      <trkpt lat="46.62885" lon="5.5498">
        <ele>436.01</ele>
        <time>2020-01-22T14:02:37.999Z</time>
      </trkpt>
      <trkpt lat="46.62888" lon="5.54979">
        <ele>437.2</ele>
        <time>2020-01-22T14:02:47.999Z</time>
      </trkpt>
      <trkpt lat="46.62894" lon="5.54975">
        <ele>438.06</ele>
        <time>2020-01-22T14:02:57.999Z</time>
      </trkpt>
      <trkpt lat="46.629" lon="5.54972">
        <ele>439.29</ele>
        <time>2020-01-22T14:03:07.999Z</time>
      </trkpt>
      <trkpt lat="46.62907" lon="5.54969">
        <ele>441.14</ele>
        <time>2020-01-22T14:03:17.999Z</time>
      </trkpt>
      <trkpt lat="46.62914" lon="5.54966">
        <ele>442.78</ele>
        <time>2020-01-22T14:03:27.999Z</time>
      </trkpt>
      <trkpt lat="46.62923" lon="5.54964">
        <ele>444.06</ele>
        <time>2020-01-22T14:03:37.999Z</time>
      </trkpt>
      <trkpt lat="46.62929" lon="5.54959">
        <ele>444.88</ele>
        <time>2020-01-22T14:03:47.999Z</time>
      </trkpt>
      <trkpt lat="46.62937" lon="5.54955">
        <ele>445.51</ele>
        <time>2020-01-22T14:03:57.999Z</time>
      </trkpt>
      <trkpt lat="46.62946" lon="5.54955">
        <ele>446.28</ele>
        <time>2020-01-22T14:04:07.999Z</time>
      </trkpt>
      <trkpt lat="46.62953" lon="5.5495">
        <ele>446.96</ele>
        <time>2020-01-22T14:04:17.999Z</time>
      </trkpt>
      <trkpt lat="46.62966" lon="5.54948">
        <ele>447.89</ele>
        <time>2020-01-22T14:04:27.999Z</time>
      </trkpt>
      <trkpt lat="46.62969" lon="5.54947">
        <ele>449.04</ele>
        <time>2020-01-22T14:04:37.999Z</time>
      </trkpt>
      <trkpt lat="46.62972" lon="5.54942">
        <ele>449.85</ele>
        <time>2020-01-22T14:04:47.999Z</time>
      </trkpt>
      <trkpt lat="46.62979" lon="5.54942">
        <ele>450.23</ele>
        <time>2020-01-22T14:04:57.999Z</time>
      </trkpt>
      <trkpt lat="46.62978" lon="5.54939">
        <ele>450.82</ele>
        <time>2020-01-22T14:05:09.999Z</time>
      </trkpt>
      <trkpt lat="46.62979" lon="5.54938">
        <ele>451.29</ele>
        <time>2020-01-22T14:05:19.999Z</time>
      </trkpt>
      <trkpt lat="46.6298" lon="5.54936">
        <ele>451.45</ele>
        <time>2020-01-22T14:05:32.999Z</time>
      </trkpt>
      <trkpt lat="46.62982" lon="5.54943">
        <ele>452.45</ele>
        <time>2020-01-22T14:05:42.999Z</time>
      </trkpt>
      <trkpt lat="46.62981" lon="5.54942">
        <ele>452.44</ele>
        <time>2020-01-22T14:05:52.999Z</time>
      </trkpt>
      <trkpt lat="46.6298" lon="5.5494">
        <ele>452.36</ele>
        <time>2020-01-22T14:06:02.999Z</time>
      </trkpt>
      <trkpt lat="46.62982" lon="5.54937">
        <ele>452.37</ele>
        <time>2020-01-22T14:06:12.999Z</time>
      </trkpt>
      <trkpt lat="46.62981" lon="5.54937">
        <ele>452.36</ele>
        <time>2020-01-22T14:06:29.999Z</time>
      </trkpt>
      <trkpt lat="46.6298" lon="5.54937">
        <ele>452.32</ele>
        <time>2020-01-22T14:06:40.999Z</time>
      </trkpt>
      <trkpt lat="46.6298" lon="5.54939">
        <ele>452.27</ele>
        <time>2020-01-22T14:06:54.999Z</time>
      </trkpt>
      <trkpt lat="46.6298" lon="5.54938">
        <ele>452.15</ele>
        <time>2020-01-22T14:07:22.999Z</time>
      </trkpt>
      <trkpt lat="46.62981" lon="5.54937">
        <ele>452</ele>
        <time>2020-01-22T14:07:36.999Z</time>
      </trkpt>
      <trkpt lat="46.62982" lon="5.54936">
        <ele>451.59</ele>
        <time>2020-01-22T14:08:01.999Z</time>
      </trkpt>
      <trkpt lat="46.62982" lon="5.54935">
        <ele>451.68</ele>
        <time>2020-01-22T14:08:18.000Z</time>
      </trkpt>
      <trkpt lat="46.62982" lon="5.54934">
        <ele>451.8</ele>
        <time>2020-01-22T14:08:32.000Z</time>
      </trkpt>
      <trkpt lat="46.6298" lon="5.54936">
        <ele>451.52</ele>
        <time>2020-01-22T14:08:56.000Z</time>
      </trkpt>
      <trkpt lat="46.62984" lon="5.54936">
        <ele>451.38</ele>
        <time>2020-01-22T14:09:06.000Z</time>
      </trkpt>
      <trkpt lat="46.6299" lon="5.54927">
        <ele>451.01</ele>
        <time>2020-01-22T14:09:16.000Z</time>
      </trkpt>
      <trkpt lat="46.63" lon="5.5492">
        <ele>450.49</ele>
        <time>2020-01-22T14:09:26.000Z</time>
      </trkpt>
      <trkpt lat="46.63004" lon="5.54918">
        <ele>449.95</ele>
        <time>2020-01-22T14:09:36.000Z</time>
      </trkpt>
      <trkpt lat="46.6301" lon="5.54919">
        <ele>450.12</ele>
        <time>2020-01-22T14:09:46.000Z</time>
      </trkpt>
      <trkpt lat="46.63017" lon="5.54924">
        <ele>450.88</ele>
        <time>2020-01-22T14:09:56.000Z</time>
      </trkpt>
      <trkpt lat="46.63027" lon="5.54924">
        <ele>451.21</ele>
        <time>2020-01-22T14:10:06.000Z</time>
      </trkpt>
      <trkpt lat="46.63035" lon="5.54929">
        <ele>451.98</ele>
        <time>2020-01-22T14:10:16.000Z</time>
      </trkpt>
      <trkpt lat="46.63041" lon="5.54933">
        <ele>452.99</ele>
        <time>2020-01-22T14:10:26.000Z</time>
      </trkpt>
      <trkpt lat="46.6305" lon="5.54934">
        <ele>453.85</ele>
        <time>2020-01-22T14:10:36.000Z</time>
      </trkpt>
      <trkpt lat="46.63054" lon="5.54935">
        <ele>453.62</ele>
        <time>2020-01-22T14:10:46.000Z</time>
      </trkpt>
      <trkpt lat="46.63058" lon="5.54934">
        <ele>452.88</ele>
        <time>2020-01-22T14:10:56.000Z</time>
      </trkpt>
      <trkpt lat="46.63064" lon="5.54932">
        <ele>452.5</ele>
        <time>2020-01-22T14:11:06.000Z</time>
      </trkpt>
      <trkpt lat="46.63072" lon="5.54933">
        <ele>451.46</ele>
        <time>2020-01-22T14:11:16.000Z</time>
      </trkpt>
      <trkpt lat="46.6308" lon="5.54936">
        <ele>450.6</ele>
        <time>2020-01-22T14:11:26.000Z</time>
      </trkpt>
      <trkpt lat="46.63092" lon="5.54934">
        <ele>449.83</ele>
        <time>2020-01-22T14:11:36.000Z</time>
      </trkpt>
      <trkpt lat="46.63099" lon="5.54934">
        <ele>449.14</ele>
        <time>2020-01-22T14:11:46.000Z</time>
      </trkpt>
      <trkpt lat="46.63109" lon="5.54941">
        <ele>448.31</ele>
        <time>2020-01-22T14:11:56.000Z</time>
      </trkpt>
      <trkpt lat="46.63112" lon="5.54948">
        <ele>447.81</ele>
        <time>2020-01-22T14:12:06.000Z</time>
      </trkpt>
      <trkpt lat="46.63118" lon="5.54956">
        <ele>448</ele>
        <time>2020-01-22T14:12:16.000Z</time>
      </trkpt>
      <trkpt lat="46.63126" lon="5.54963">
        <ele>447.55</ele>
        <time>2020-01-22T14:12:26.000Z</time>
      </trkpt>
      <trkpt lat="46.63129" lon="5.54963">
        <ele>446.91</ele>
        <time>2020-01-22T14:12:36.000Z</time>
      </trkpt>
      <trkpt lat="46.63133" lon="5.54963">
        <ele>446.6</ele>
        <time>2020-01-22T14:12:46.000Z</time>
      </trkpt>
      <trkpt lat="46.63139" lon="5.54964">
        <ele>446.21</ele>
        <time>2020-01-22T14:12:56.000Z</time>
      </trkpt>
      <trkpt lat="46.63157" lon="5.54966">
        <ele>446.3</ele>
        <time>2020-01-22T14:13:06.000Z</time>
      </trkpt>
      <trkpt lat="46.63163" lon="5.54968">
        <ele>446.23</ele>
        <time>2020-01-22T14:13:16.000Z</time>
      </trkpt>
      <trkpt lat="46.63168" lon="5.54978">
        <ele>446</ele>
        <time>2020-01-22T14:13:26.000Z</time>
      </trkpt>
      <trkpt lat="46.63168" lon="5.54986">
        <ele>445.46</ele>
        <time>2020-01-22T14:13:36.000Z</time>
      </trkpt>
      <trkpt lat="46.63168" lon="5.54995">
        <ele>445.03</ele>
        <time>2020-01-22T14:13:46.000Z</time>
      </trkpt>
      <trkpt lat="46.63168" lon="5.55001">
        <ele>443.89</ele>
        <time>2020-01-22T14:13:56.000Z</time>
      </trkpt>
      <trkpt lat="46.63168" lon="5.55009">
        <ele>444.04</ele>
        <time>2020-01-22T14:14:06.000Z</time>
      </trkpt>
      <trkpt lat="46.63159" lon="5.55029">
        <ele>443.99</ele>
        <time>2020-01-22T14:14:16.000Z</time>
      </trkpt>
      <trkpt lat="46.63157" lon="5.55034">
        <ele>442.73</ele>
        <time>2020-01-22T14:14:26.000Z</time>
      </trkpt>
      <trkpt lat="46.63151" lon="5.55043">
        <ele>441.22</ele>
        <time>2020-01-22T14:14:36.000Z</time>
      </trkpt>
      <trkpt lat="46.63145" lon="5.55053">
        <ele>440.06</ele>
        <time>2020-01-22T14:14:46.000Z</time>
      </trkpt>
      <trkpt lat="46.63145" lon="5.55068">
        <ele>439.55</ele>
        <time>2020-01-22T14:14:56.000Z</time>
      </trkpt>
      <trkpt lat="46.63143" lon="5.55082">
        <ele>439.56</ele>
        <time>2020-01-22T14:15:06.000Z</time>
      </trkpt>
      <trkpt lat="46.6314" lon="5.55098">
        <ele>439.83</ele>
        <time>2020-01-22T14:15:16.000Z</time>
      </trkpt>
      <trkpt lat="46.63136" lon="5.5511">
        <ele>440.85</ele>
        <time>2020-01-22T14:15:26.000Z</time>
      </trkpt>
      <trkpt lat="46.63133" lon="5.55123">
        <ele>441.94</ele>
        <time>2020-01-22T14:15:36.000Z</time>
      </trkpt>
      <trkpt lat="46.63128" lon="5.55134">
        <ele>442.76</ele>
        <time>2020-01-22T14:15:46.000Z</time>
      </trkpt>
      <trkpt lat="46.63126" lon="5.55143">
        <ele>442.83</ele>
        <time>2020-01-22T14:15:56.000Z</time>
      </trkpt>
      <trkpt lat="46.63126" lon="5.55144">
        <ele>442.85</ele>
        <time>2020-01-22T14:16:08.000Z</time>
      </trkpt>
      <trkpt lat="46.63127" lon="5.55144">
        <ele>442.86</ele>
        <time>2020-01-22T14:16:19.000Z</time>
      </trkpt>
      <trkpt lat="46.63128" lon="5.55143">
        <ele>442.86</ele>
        <time>2020-01-22T14:16:29.000Z</time>
      </trkpt>
      <trkpt lat="46.63128" lon="5.55145">
        <ele>442.81</ele>
        <time>2020-01-22T14:17:07.000Z</time>
      </trkpt>
      <trkpt lat="46.63128" lon="5.55143">
        <ele>442.9</ele>
        <time>2020-01-22T14:17:25.000Z</time>
      </trkpt>
      <trkpt lat="46.63128" lon="5.55142">
        <ele>442.96</ele>
        <time>2020-01-22T14:17:35.000Z</time>
      </trkpt>
      <trkpt lat="46.63128" lon="5.55144">
        <ele>442.96</ele>
        <time>2020-01-22T14:17:54.000Z</time>
      </trkpt>
      <trkpt lat="46.63132" lon="5.55165">
        <ele>444.12</ele>
        <time>2020-01-22T14:18:04.000Z</time>
      </trkpt>
      <trkpt lat="46.6313" lon="5.55176">
        <ele>446.23</ele>
        <time>2020-01-22T14:18:14.000Z</time>
      </trkpt>
      <trkpt lat="46.63128" lon="5.55183">
        <ele>446.66</ele>
        <time>2020-01-22T14:18:24.000Z</time>
      </trkpt>
      <trkpt lat="46.63128" lon="5.55192">
        <ele>445.1</ele>
        <time>2020-01-22T14:18:34.000Z</time>
      </trkpt>
      <trkpt lat="46.63137" lon="5.55205">
        <ele>444.66</ele>
        <time>2020-01-22T14:18:44.000Z</time>
      </trkpt>
      <trkpt lat="46.63144" lon="5.55215">
        <ele>445.16</ele>
        <time>2020-01-22T14:18:54.000Z</time>
      </trkpt>
      <trkpt lat="46.63154" lon="5.55223">
        <ele>446.17</ele>
        <time>2020-01-22T14:19:04.000Z</time>
      </trkpt>
      <trkpt lat="46.63163" lon="5.55228">
        <ele>447.62</ele>
        <time>2020-01-22T14:19:14.000Z</time>
      </trkpt>
      <trkpt lat="46.63172" lon="5.55236">
        <ele>448.99</ele>
        <time>2020-01-22T14:19:24.000Z</time>
      </trkpt>
      <trkpt lat="46.63179" lon="5.55238">
        <ele>450.08</ele>
        <time>2020-01-22T14:19:34.000Z</time>
      </trkpt>
      <trkpt lat="46.63191" lon="5.55247">
        <ele>450.78</ele>
        <time>2020-01-22T14:19:44.000Z</time>
      </trkpt>
      <trkpt lat="46.63201" lon="5.55249">
        <ele>451.35</ele>
        <time>2020-01-22T14:19:54.000Z</time>
      </trkpt>
      <trkpt lat="46.63208" lon="5.55255">
        <ele>451.78</ele>
        <time>2020-01-22T14:20:04.000Z</time>
      </trkpt>
      <trkpt lat="46.63208" lon="5.55263">
        <ele>452.06</ele>
        <time>2020-01-22T14:20:14.000Z</time>
      </trkpt>
      <trkpt lat="46.63205" lon="5.55272">
        <ele>450.93</ele>
        <time>2020-01-22T14:20:24.000Z</time>
      </trkpt>
      <trkpt lat="46.63202" lon="5.55285">
        <ele>448.33</ele>
        <time>2020-01-22T14:20:34.000Z</time>
      </trkpt>
      <trkpt lat="46.63193" lon="5.55297">
        <ele>445.76</ele>
        <time>2020-01-22T14:20:44.000Z</time>
      </trkpt>
      <trkpt lat="46.63183" lon="5.55298">
        <ele>442.68</ele>
        <time>2020-01-22T14:20:54.000Z</time>
      </trkpt>
      <trkpt lat="46.63171" lon="5.55297">
        <ele>439.51</ele>
        <time>2020-01-22T14:21:04.000Z</time>
      </trkpt>
      <trkpt lat="46.63163" lon="5.55296">
        <ele>436.5</ele>
        <time>2020-01-22T14:21:14.000Z</time>
      </trkpt>
      <trkpt lat="46.63155" lon="5.55287">
        <ele>434.71</ele>
        <time>2020-01-22T14:21:24.000Z</time>
      </trkpt>
      <trkpt lat="46.63144" lon="5.55281">
        <ele>433.14</ele>
        <time>2020-01-22T14:21:34.000Z</time>
      </trkpt>
      <trkpt lat="46.63136" lon="5.5528">
        <ele>431.85</ele>
        <time>2020-01-22T14:21:44.000Z</time>
      </trkpt>
      <trkpt lat="46.63126" lon="5.55276">
        <ele>431.05</ele>
        <time>2020-01-22T14:21:54.000Z</time>
      </trkpt>
      <trkpt lat="46.63116" lon="5.55275">
        <ele>430.55</ele>
        <time>2020-01-22T14:22:04.000Z</time>
      </trkpt>
      <trkpt lat="46.63105" lon="5.55277">
        <ele>431.37</ele>
        <time>2020-01-22T14:22:14.000Z</time>
      </trkpt>
      <trkpt lat="46.63094" lon="5.55281">
        <ele>433.53</ele>
        <time>2020-01-22T14:22:24.000Z</time>
      </trkpt>
      <trkpt lat="46.63085" lon="5.55284">
        <ele>435.21</ele>
        <time>2020-01-22T14:22:34.000Z</time>
      </trkpt>
      <trkpt lat="46.63072" lon="5.55282">
        <ele>436.81</ele>
        <time>2020-01-22T14:22:44.000Z</time>
      </trkpt>
      <trkpt lat="46.63062" lon="5.55284">
        <ele>437.61</ele>
        <time>2020-01-22T14:22:54.000Z</time>
      </trkpt>
      <trkpt lat="46.63046" lon="5.55287">
        <ele>438.45</ele>
        <time>2020-01-22T14:23:04.000Z</time>
      </trkpt>
      <trkpt lat="46.63037" lon="5.55291">
        <ele>438.63</ele>
        <time>2020-01-22T14:23:14.000Z</time>
      </trkpt>
      <trkpt lat="46.63029" lon="5.5529">
        <ele>439.61</ele>
        <time>2020-01-22T14:23:24.000Z</time>
      </trkpt>
      <trkpt lat="46.63014" lon="5.55296">
        <ele>440.7</ele>
        <time>2020-01-22T14:23:34.000Z</time>
      </trkpt>
      <trkpt lat="46.63007" lon="5.553">
        <ele>440.87</ele>
        <time>2020-01-22T14:23:44.000Z</time>
      </trkpt>
      <trkpt lat="46.62995" lon="5.55307">
        <ele>440.71</ele>
        <time>2020-01-22T14:23:54.000Z</time>
      </trkpt>
      <trkpt lat="46.62987" lon="5.55308">
        <ele>440.22</ele>
        <time>2020-01-22T14:24:04.000Z</time>
      </trkpt>
      <trkpt lat="46.62976" lon="5.55312">
        <ele>438.85</ele>
        <time>2020-01-22T14:24:14.000Z</time>
      </trkpt>
      <trkpt lat="46.62969" lon="5.55313">
        <ele>436.8</ele>
        <time>2020-01-22T14:24:24.000Z</time>
      </trkpt>
      <trkpt lat="46.62953" lon="5.5532">
        <ele>435.77</ele>
        <time>2020-01-22T14:24:34.000Z</time>
      </trkpt>
      <trkpt lat="46.62943" lon="5.55323">
        <ele>435.57</ele>
        <time>2020-01-22T14:24:44.000Z</time>
      </trkpt>
      <trkpt lat="46.62935" lon="5.55328">
        <ele>435.95</ele>
        <time>2020-01-22T14:24:54.000Z</time>
      </trkpt>
      <trkpt lat="46.62924" lon="5.55333">
        <ele>436.65</ele>
        <time>2020-01-22T14:25:04.000Z</time>
      </trkpt>
      <trkpt lat="46.62916" lon="5.55339">
        <ele>437.29</ele>
        <time>2020-01-22T14:25:14.000Z</time>
      </trkpt>
      <trkpt lat="46.62907" lon="5.55344">
        <ele>438.15</ele>
        <time>2020-01-22T14:25:24.000Z</time>
      </trkpt>
      <trkpt lat="46.62897" lon="5.55351">
        <ele>438.39</ele>
        <time>2020-01-22T14:25:34.000Z</time>
      </trkpt>
      <trkpt lat="46.62888" lon="5.55355">
        <ele>438.88</ele>
        <time>2020-01-22T14:25:44.000Z</time>
      </trkpt>
      <trkpt lat="46.62876" lon="5.55359">
        <ele>439.29</ele>
        <time>2020-01-22T14:25:54.000Z</time>
      </trkpt>
      <trkpt lat="46.62864" lon="5.55361">
        <ele>440.37</ele>
        <time>2020-01-22T14:26:04.000Z</time>
      </trkpt>
      <trkpt lat="46.62861" lon="5.55363">
        <ele>441.72</ele>
        <time>2020-01-22T14:26:14.000Z</time>
      </trkpt>
      <trkpt lat="46.62851" lon="5.55361">
        <ele>443.16</ele>
        <time>2020-01-22T14:26:24.000Z</time>
      </trkpt>
      <trkpt lat="46.62838" lon="5.55365">
        <ele>444.56</ele>
        <time>2020-01-22T14:26:34.000Z</time>
      </trkpt>
      <trkpt lat="46.62827" lon="5.55359">
        <ele>445.53</ele>
        <time>2020-01-22T14:26:44.000Z</time>
      </trkpt>
      <trkpt lat="46.62818" lon="5.55356">
        <ele>446.27</ele>
        <time>2020-01-22T14:26:54.000Z</time>
      </trkpt>
      <trkpt lat="46.6281" lon="5.55356">
        <ele>447.44</ele>
        <time>2020-01-22T14:27:04.000Z</time>
      </trkpt>
      <trkpt lat="46.62803" lon="5.55354">
        <ele>448.84</ele>
        <time>2020-01-22T14:27:14.000Z</time>
      </trkpt>
      <trkpt lat="46.62784" lon="5.55353">
        <ele>450.45</ele>
        <time>2020-01-22T14:27:24.000Z</time>
      </trkpt>
      <trkpt lat="46.62774" lon="5.55354">
        <ele>451.3</ele>
        <time>2020-01-22T14:27:34.000Z</time>
      </trkpt>
      <trkpt lat="46.6277" lon="5.55354">
        <ele>452.09</ele>
        <time>2020-01-22T14:27:44.000Z</time>
      </trkpt>
      <trkpt lat="46.62762" lon="5.55358">
        <ele>452.37</ele>
        <time>2020-01-22T14:27:54.000Z</time>
      </trkpt>
      <trkpt lat="46.62753" lon="5.55365">
        <ele>453.04</ele>
        <time>2020-01-22T14:28:04.000Z</time>
      </trkpt>
      <trkpt lat="46.62744" lon="5.55365">
        <ele>453.75</ele>
        <time>2020-01-22T14:28:14.000Z</time>
      </trkpt>
      <trkpt lat="46.62747" lon="5.55366">
        <ele>454.48</ele>
        <time>2020-01-22T14:28:24.000Z</time>
      </trkpt>
      <trkpt lat="46.62749" lon="5.55365">
        <ele>454.73</ele>
        <time>2020-01-22T14:28:34.000Z</time>
      </trkpt>
      <trkpt lat="46.62749" lon="5.55367">
        <ele>455.1</ele>
        <time>2020-01-22T14:28:44.000Z</time>
      </trkpt>
      <trkpt lat="46.62748" lon="5.55368">
        <ele>455.31</ele>
        <time>2020-01-22T14:28:54.000Z</time>
      </trkpt>
      <trkpt lat="46.62745" lon="5.55369">
        <ele>455.83</ele>
        <time>2020-01-22T14:29:04.000Z</time>
      </trkpt>
      <trkpt lat="46.62744" lon="5.5537">
        <ele>456.43</ele>
        <time>2020-01-22T14:29:14.000Z</time>
      </trkpt>
      <trkpt lat="46.6274" lon="5.55371">
        <ele>456.92</ele>
        <time>2020-01-22T14:29:24.000Z</time>
      </trkpt>
      <trkpt lat="46.62741" lon="5.55373">
        <ele>457.35</ele>
        <time>2020-01-22T14:29:34.000Z</time>
      </trkpt>
      <trkpt lat="46.62746" lon="5.55371">
        <ele>458.35</ele>
        <time>2020-01-22T14:29:44.000Z</time>
      </trkpt>
      <trkpt lat="46.62752" lon="5.55368">
        <ele>458.46</ele>
        <time>2020-01-22T14:29:54.000Z</time>
      </trkpt>
      <trkpt lat="46.62754" lon="5.55367">
        <ele>458.61</ele>
        <time>2020-01-22T14:30:04.000Z</time>
      </trkpt>
      <trkpt lat="46.62753" lon="5.55366">
        <ele>459.78</ele>
        <time>2020-01-22T14:30:14.000Z</time>
      </trkpt>
      <trkpt lat="46.6275" lon="5.55369">
        <ele>461.07</ele>
        <time>2020-01-22T14:30:24.000Z</time>
      </trkpt>
      <trkpt lat="46.62751" lon="5.55368">
        <ele>461.42</ele>
        <time>2020-01-22T14:30:43.000Z</time>
      </trkpt>
      <trkpt lat="46.62753" lon="5.55368">
        <ele>461.73</ele>
        <time>2020-01-22T14:31:02.000Z</time>
      </trkpt>
      <trkpt lat="46.62753" lon="5.55367">
        <ele>462.1</ele>
        <time>2020-01-22T14:31:12.000Z</time>
      </trkpt>
      <trkpt lat="46.62749" lon="5.55365">
        <ele>463.21</ele>
        <time>2020-01-22T14:31:22.000Z</time>
      </trkpt>
      <trkpt lat="46.62749" lon="5.55367">
        <ele>463.87</ele>
        <time>2020-01-22T14:31:32.000Z</time>
      </trkpt>
      <trkpt lat="46.62748" lon="5.55367">
        <ele>464.53</ele>
        <time>2020-01-22T14:31:43.000Z</time>
      </trkpt>
      <trkpt lat="46.62739" lon="5.55373">
        <ele>464.89</ele>
        <time>2020-01-22T14:31:53.000Z</time>
      </trkpt>
      <trkpt lat="46.62733" lon="5.55381">
        <ele>464.31</ele>
        <time>2020-01-22T14:32:03.000Z</time>
      </trkpt>
      <trkpt lat="46.62729" lon="5.5539">
        <ele>463.49</ele>
        <time>2020-01-22T14:32:13.000Z</time>
      </trkpt>
      <trkpt lat="46.62727" lon="5.55402">
        <ele>463.29</ele>
        <time>2020-01-22T14:32:23.000Z</time>
      </trkpt>
      <trkpt lat="46.62727" lon="5.554">
        <ele>463.3</ele>
        <time>2020-01-22T14:32:38.000Z</time>
      </trkpt>
      <trkpt lat="46.62728" lon="5.55401">
        <ele>463.45</ele>
        <time>2020-01-22T14:33:03.000Z</time>
      </trkpt>
      <trkpt lat="46.62728" lon="5.55398">
        <ele>463.55</ele>
        <time>2020-01-22T14:33:22.000Z</time>
      </trkpt>
      <trkpt lat="46.6273" lon="5.554">
        <ele>463.79</ele>
        <time>2020-01-22T14:33:32.000Z</time>
      </trkpt>
      <trkpt lat="46.62734" lon="5.55398">
        <ele>464.1</ele>
        <time>2020-01-22T14:33:42.000Z</time>
      </trkpt>
      <trkpt lat="46.62739" lon="5.55399">
        <ele>463.66</ele>
        <time>2020-01-22T14:33:52.000Z</time>
      </trkpt>
      <trkpt lat="46.62747" lon="5.55404">
        <ele>462.98</ele>
        <time>2020-01-22T14:34:02.000Z</time>
      </trkpt>
      <trkpt lat="46.62758" lon="5.55409">
        <ele>462.62</ele>
        <time>2020-01-22T14:34:12.000Z</time>
      </trkpt>
      <trkpt lat="46.62766" lon="5.55412">
        <ele>462.4</ele>
        <time>2020-01-22T14:34:22.000Z</time>
      </trkpt>
      <trkpt lat="46.62777" lon="5.55417">
        <ele>462.77</ele>
        <time>2020-01-22T14:34:32.000Z</time>
      </trkpt>
      <trkpt lat="46.62785" lon="5.55422">
        <ele>463.04</ele>
        <time>2020-01-22T14:34:42.000Z</time>
      </trkpt>
      <trkpt lat="46.62795" lon="5.55429">
        <ele>463.21</ele>
        <time>2020-01-22T14:34:52.000Z</time>
      </trkpt>
      <trkpt lat="46.628" lon="5.55438">
        <ele>463.05</ele>
        <time>2020-01-22T14:35:02.000Z</time>
      </trkpt>
      <trkpt lat="46.62809" lon="5.55449">
        <ele>462.5</ele>
        <time>2020-01-22T14:35:12.000Z</time>
      </trkpt>
      <trkpt lat="46.62817" lon="5.55454">
        <ele>462.57</ele>
        <time>2020-01-22T14:35:22.000Z</time>
      </trkpt>
      <trkpt lat="46.62826" lon="5.55459">
        <ele>462.24</ele>
        <time>2020-01-22T14:35:32.000Z</time>
      </trkpt>
      <trkpt lat="46.62838" lon="5.55468">
        <ele>461.5</ele>
        <time>2020-01-22T14:35:42.000Z</time>
      </trkpt>
      <trkpt lat="46.62848" lon="5.55474">
        <ele>461.5</ele>
        <time>2020-01-22T14:35:52.000Z</time>
      </trkpt>
      <trkpt lat="46.62859" lon="5.55478">
        <ele>461.72</ele>
        <time>2020-01-22T14:36:02.000Z</time>
      </trkpt>
      <trkpt lat="46.62873" lon="5.55481">
        <ele>462.74</ele>
        <time>2020-01-22T14:36:12.000Z</time>
      </trkpt>
      <trkpt lat="46.62884" lon="5.55481">
        <ele>463.69</ele>
        <time>2020-01-22T14:36:22.000Z</time>
      </trkpt>
      <trkpt lat="46.62896" lon="5.55476">
        <ele>464.65</ele>
        <time>2020-01-22T14:36:32.000Z</time>
      </trkpt>
      <trkpt lat="46.62908" lon="5.55474">
        <ele>465.41</ele>
        <time>2020-01-22T14:36:42.000Z</time>
      </trkpt>
      <trkpt lat="46.62917" lon="5.5547">
        <ele>466.45</ele>
        <time>2020-01-22T14:36:52.000Z</time>
      </trkpt>
      <trkpt lat="46.62927" lon="5.55468">
        <ele>467.67</ele>
        <time>2020-01-22T14:37:02.000Z</time>
      </trkpt>
      <trkpt lat="46.62937" lon="5.55466">
        <ele>468.55</ele>
        <time>2020-01-22T14:37:12.000Z</time>
      </trkpt>
      <trkpt lat="46.62951" lon="5.55461">
        <ele>468.94</ele>
        <time>2020-01-22T14:37:22.000Z</time>
      </trkpt>
      <trkpt lat="46.62959" lon="5.55459">
        <ele>469.38</ele>
        <time>2020-01-22T14:37:32.000Z</time>
      </trkpt>
      <trkpt lat="46.62969" lon="5.55457">
        <ele>469.64</ele>
        <time>2020-01-22T14:37:42.000Z</time>
      </trkpt>
      <trkpt lat="46.6298" lon="5.55451">
        <ele>470.35</ele>
        <time>2020-01-22T14:37:52.000Z</time>
      </trkpt>
      <trkpt lat="46.62988" lon="5.55447">
        <ele>471.43</ele>
        <time>2020-01-22T14:38:02.000Z</time>
      </trkpt>
      <trkpt lat="46.62995" lon="5.55442">
        <ele>472.03</ele>
        <time>2020-01-22T14:38:12.000Z</time>
      </trkpt>
      <trkpt lat="46.63009" lon="5.55438">
        <ele>472.43</ele>
        <time>2020-01-22T14:38:22.000Z</time>
      </trkpt>
      <trkpt lat="46.63024" lon="5.55435">
        <ele>472.97</ele>
        <time>2020-01-22T14:38:32.000Z</time>
      </trkpt>
      <trkpt lat="46.63028" lon="5.55431">
        <ele>473.47</ele>
        <time>2020-01-22T14:38:42.000Z</time>
      </trkpt>
      <trkpt lat="46.63039" lon="5.55423">
        <ele>473.63</ele>
        <time>2020-01-22T14:38:52.000Z</time>
      </trkpt>
      <trkpt lat="46.63046" lon="5.55424">
        <ele>473.46</ele>
        <time>2020-01-22T14:39:02.000Z</time>
      </trkpt>
      <trkpt lat="46.63051" lon="5.55422">
        <ele>473.62</ele>
        <time>2020-01-22T14:39:12.000Z</time>
      </trkpt>
      <trkpt lat="46.63057" lon="5.55425">
        <ele>473.46</ele>
        <time>2020-01-22T14:39:22.000Z</time>
      </trkpt>
      <trkpt lat="46.63067" lon="5.55429">
        <ele>473.1</ele>
        <time>2020-01-22T14:39:32.000Z</time>
      </trkpt>
      <trkpt lat="46.6308" lon="5.55426">
        <ele>473.29</ele>
        <time>2020-01-22T14:39:42.000Z</time>
      </trkpt>
      <trkpt lat="46.63089" lon="5.5543">
        <ele>472.82</ele>
        <time>2020-01-22T14:39:52.000Z</time>
      </trkpt>
      <trkpt lat="46.63098" lon="5.55433">
        <ele>471.17</ele>
        <time>2020-01-22T14:40:02.000Z</time>
      </trkpt>
      <trkpt lat="46.63108" lon="5.55435">
        <ele>469.37</ele>
        <time>2020-01-22T14:40:12.000Z</time>
      </trkpt>
      <trkpt lat="46.63119" lon="5.55424">
        <ele>468.71</ele>
        <time>2020-01-22T14:40:22.000Z</time>
      </trkpt>
      <trkpt lat="46.63125" lon="5.55413">
        <ele>468.01</ele>
        <time>2020-01-22T14:40:32.000Z</time>
      </trkpt>
      <trkpt lat="46.63137" lon="5.55405">
        <ele>467.36</ele>
        <time>2020-01-22T14:40:42.000Z</time>
      </trkpt>
      <trkpt lat="46.63142" lon="5.554">
        <ele>467.33</ele>
        <time>2020-01-22T14:40:52.000Z</time>
      </trkpt>
      <trkpt lat="46.63151" lon="5.55398">
        <ele>467.1</ele>
        <time>2020-01-22T14:41:02.000Z</time>
      </trkpt>
      <trkpt lat="46.63154" lon="5.55403">
        <ele>466.58</ele>
        <time>2020-01-22T14:41:12.000Z</time>
      </trkpt>
      <trkpt lat="46.63161" lon="5.5541">
        <ele>464.6</ele>
        <time>2020-01-22T14:41:22.000Z</time>
      </trkpt>
      <trkpt lat="46.63172" lon="5.55418">
        <ele>462.42</ele>
        <time>2020-01-22T14:41:32.000Z</time>
      </trkpt>
      <trkpt lat="46.63177" lon="5.55424">
        <ele>460.78</ele>
        <time>2020-01-22T14:41:42.000Z</time>
      </trkpt>
      <trkpt lat="46.6318" lon="5.5543">
        <ele>459.81</ele>
        <time>2020-01-22T14:41:52.000Z</time>
      </trkpt>
      <trkpt lat="46.63191" lon="5.55433">
        <ele>458.35</ele>
        <time>2020-01-22T14:42:02.000Z</time>
      </trkpt>
      <trkpt lat="46.632" lon="5.55435">
        <ele>456.39</ele>
        <time>2020-01-22T14:42:12.000Z</time>
      </trkpt>
      <trkpt lat="46.63206" lon="5.55438">
        <ele>455.55</ele>
        <time>2020-01-22T14:42:22.000Z</time>
      </trkpt>
      <trkpt lat="46.63211" lon="5.55441">
        <ele>454.94</ele>
        <time>2020-01-22T14:42:32.000Z</time>
      </trkpt>
      <trkpt lat="46.6322" lon="5.55443">
        <ele>453.9</ele>
        <time>2020-01-22T14:42:42.000Z</time>
      </trkpt>
      <trkpt lat="46.63231" lon="5.55442">
        <ele>453.2</ele>
        <time>2020-01-22T14:42:52.000Z</time>
      </trkpt>
      <trkpt lat="46.63231" lon="5.55445">
        <ele>451.58</ele>
        <time>2020-01-22T14:43:02.000Z</time>
      </trkpt>
      <trkpt lat="46.63239" lon="5.55448">
        <ele>449.69</ele>
        <time>2020-01-22T14:43:12.000Z</time>
      </trkpt>
      <trkpt lat="46.6325" lon="5.55452">
        <ele>448.82</ele>
        <time>2020-01-22T14:43:22.000Z</time>
      </trkpt>
      <trkpt lat="46.63261" lon="5.55452">
        <ele>448.54</ele>
        <time>2020-01-22T14:43:32.000Z</time>
      </trkpt>
      <trkpt lat="46.63265" lon="5.55455">
        <ele>448.97</ele>
        <time>2020-01-22T14:43:42.000Z</time>
      </trkpt>
      <trkpt lat="46.63277" lon="5.55464">
        <ele>449.28</ele>
        <time>2020-01-22T14:43:52.000Z</time>
      </trkpt>
      <trkpt lat="46.63289" lon="5.55475">
        <ele>448.18</ele>
        <time>2020-01-22T14:44:02.000Z</time>
      </trkpt>
      <trkpt lat="46.63294" lon="5.5548">
        <ele>446.66</ele>
        <time>2020-01-22T14:44:12.000Z</time>
      </trkpt>
      <trkpt lat="46.63299" lon="5.55486">
        <ele>445.02</ele>
        <time>2020-01-22T14:44:22.000Z</time>
      </trkpt>
      <trkpt lat="46.63303" lon="5.55496">
        <ele>443.12</ele>
        <time>2020-01-22T14:44:32.000Z</time>
      </trkpt>
      <trkpt lat="46.63305" lon="5.55505">
        <ele>439.91</ele>
        <time>2020-01-22T14:44:42.000Z</time>
      </trkpt>
      <trkpt lat="46.63306" lon="5.55517">
        <ele>436.58</ele>
        <time>2020-01-22T14:44:52.000Z</time>
      </trkpt>
      <trkpt lat="46.633" lon="5.55534">
        <ele>433.59</ele>
        <time>2020-01-22T14:45:02.000Z</time>
      </trkpt>
      <trkpt lat="46.63301" lon="5.55545">
        <ele>431.03</ele>
        <time>2020-01-22T14:45:12.000Z</time>
      </trkpt>
      <trkpt lat="46.63302" lon="5.5556">
        <ele>428.41</ele>
        <time>2020-01-22T14:45:22.000Z</time>
      </trkpt>
      <trkpt lat="46.63309" lon="5.55569">
        <ele>426.53</ele>
        <time>2020-01-22T14:45:32.000Z</time>
      </trkpt>
      <trkpt lat="46.63322" lon="5.55573">
        <ele>425.69</ele>
        <time>2020-01-22T14:45:42.000Z</time>
      </trkpt>
      <trkpt lat="46.6333" lon="5.55582">
        <ele>424.62</ele>
        <time>2020-01-22T14:45:52.000Z</time>
      </trkpt>
      <trkpt lat="46.63336" lon="5.55593">
        <ele>422.87</ele>
        <time>2020-01-22T14:46:02.000Z</time>
      </trkpt>
      <trkpt lat="46.6334" lon="5.55609">
        <ele>420.46</ele>
        <time>2020-01-22T14:46:12.000Z</time>
      </trkpt>
      <trkpt lat="46.63343" lon="5.55623">
        <ele>416.9</ele>
        <time>2020-01-22T14:46:22.000Z</time>
      </trkpt>
      <trkpt lat="46.63347" lon="5.55635">
        <ele>413.46</ele>
        <time>2020-01-22T14:46:32.000Z</time>
      </trkpt>
      <trkpt lat="46.63351" lon="5.5564">
        <ele>411.72</ele>
        <time>2020-01-22T14:46:42.000Z</time>
      </trkpt>
      <trkpt lat="46.63355" lon="5.55629">
        <ele>411.65</ele>
        <time>2020-01-22T14:46:52.000Z</time>
      </trkpt>
      <trkpt lat="46.63358" lon="5.55627">
        <ele>411.77</ele>
        <time>2020-01-22T14:47:02.000Z</time>
      </trkpt>
      <trkpt lat="46.63363" lon="5.55626">
        <ele>411.73</ele>
        <time>2020-01-22T14:47:12.000Z</time>
      </trkpt>
      <trkpt lat="46.63379" lon="5.55626">
        <ele>410.94</ele>
        <time>2020-01-22T14:47:22.000Z</time>
      </trkpt>
      <trkpt lat="46.63393" lon="5.55629">
        <ele>409.41</ele>
        <time>2020-01-22T14:47:32.000Z</time>
      </trkpt>
      <trkpt lat="46.63401" lon="5.55636">
        <ele>407.13</ele>
        <time>2020-01-22T14:47:42.000Z</time>
      </trkpt>
      <trkpt lat="46.63409" lon="5.5564">
        <ele>405.76</ele>
        <time>2020-01-22T14:47:52.000Z</time>
      </trkpt>
      <trkpt lat="46.63421" lon="5.55646">
        <ele>404.83</ele>
        <time>2020-01-22T14:48:02.000Z</time>
      </trkpt>
      <trkpt lat="46.63433" lon="5.55651">
        <ele>403.58</ele>
        <time>2020-01-22T14:48:12.000Z</time>
      </trkpt>
      <trkpt lat="46.63438" lon="5.55655">
        <ele>402.89</ele>
        <time>2020-01-22T14:48:22.000Z</time>
      </trkpt>
      <trkpt lat="46.63444" lon="5.55661">
        <ele>402</ele>
        <time>2020-01-22T14:48:32.000Z</time>
      </trkpt>
      <trkpt lat="46.63456" lon="5.55667">
        <ele>400.74</ele>
        <time>2020-01-22T14:48:42.000Z</time>
      </trkpt>
      <trkpt lat="46.63462" lon="5.55673">
        <ele>398.78</ele>
        <time>2020-01-22T14:48:52.000Z</time>
      </trkpt>
      <trkpt lat="46.63467" lon="5.55677">
        <ele>395.95</ele>
        <time>2020-01-22T14:49:02.000Z</time>
      </trkpt>
      <trkpt lat="46.63475" lon="5.55683">
        <ele>392.25</ele>
        <time>2020-01-22T14:49:12.000Z</time>
      </trkpt>
      <trkpt lat="46.6348" lon="5.55689">
        <ele>389.6</ele>
        <time>2020-01-22T14:49:22.000Z</time>
      </trkpt>
      <trkpt lat="46.63491" lon="5.557">
        <ele>386.65</ele>
        <time>2020-01-22T14:49:32.000Z</time>
      </trkpt>
      <trkpt lat="46.635" lon="5.55708">
        <ele>384.07</ele>
        <time>2020-01-22T14:49:42.000Z</time>
      </trkpt>
      <trkpt lat="46.63507" lon="5.55719">
        <ele>381.55</ele>
        <time>2020-01-22T14:49:52.000Z</time>
      </trkpt>
      <trkpt lat="46.63514" lon="5.55729">
        <ele>379.31</ele>
        <time>2020-01-22T14:50:02.000Z</time>
      </trkpt>
      <trkpt lat="46.63521" lon="5.5574">
        <ele>377.11</ele>
        <time>2020-01-22T14:50:12.000Z</time>
      </trkpt>
      <trkpt lat="46.63531" lon="5.5575">
        <ele>375.24</ele>
        <time>2020-01-22T14:50:22.000Z</time>
      </trkpt>
      <trkpt lat="46.63538" lon="5.55756">
        <ele>374.46</ele>
        <time>2020-01-22T14:50:32.000Z</time>
      </trkpt>
      <trkpt lat="46.63541" lon="5.55759">
        <ele>374.24</ele>
        <time>2020-01-22T14:50:42.000Z</time>
      </trkpt>
      <trkpt lat="46.6355" lon="5.55766">
        <ele>373.51</ele>
        <time>2020-01-22T14:50:52.000Z</time>
      </trkpt>
      <trkpt lat="46.63562" lon="5.55776">
        <ele>372.52</ele>
        <time>2020-01-22T14:51:02.000Z</time>
      </trkpt>
      <trkpt lat="46.63565" lon="5.55781">
        <ele>372.79</ele>
        <time>2020-01-22T14:51:12.000Z</time>
      </trkpt>
      <trkpt lat="46.63565" lon="5.55779">
        <ele>372.91</ele>
        <time>2020-01-22T14:51:49.000Z</time>
      </trkpt>
      <trkpt lat="46.63564" lon="5.55778">
        <ele>372.91</ele>
        <time>2020-01-22T14:51:59.000Z</time>
      </trkpt>
      <trkpt lat="46.63563" lon="5.55777">
        <ele>373.02</ele>
        <time>2020-01-22T14:52:14.000Z</time>
      </trkpt>
      <trkpt lat="46.63562" lon="5.55777">
        <ele>373.2</ele>
        <time>2020-01-22T14:52:27.000Z</time>
      </trkpt>
      <trkpt lat="46.63563" lon="5.55779">
        <ele>373.93</ele>
        <time>2020-01-22T14:52:42.000Z</time>
      </trkpt>
      <trkpt lat="46.63569" lon="5.55783">
        <ele>374.86</ele>
        <time>2020-01-22T14:52:52.000Z</time>
      </trkpt>
      <trkpt lat="46.63576" lon="5.55796">
        <ele>375.56</ele>
        <time>2020-01-22T14:53:02.000Z</time>
      </trkpt>
      <trkpt lat="46.63579" lon="5.55801">
        <ele>375.72</ele>
        <time>2020-01-22T14:53:12.000Z</time>
      </trkpt>
      <trkpt lat="46.63582" lon="5.55806">
        <ele>375.08</ele>
        <time>2020-01-22T14:53:22.000Z</time>
      </trkpt>
      <trkpt lat="46.63586" lon="5.55817">
        <ele>374.32</ele>
        <time>2020-01-22T14:53:32.000Z</time>
      </trkpt>
      <trkpt lat="46.63592" lon="5.55825">
        <ele>373.43</ele>
        <time>2020-01-22T14:53:42.000Z</time>
      </trkpt>
      <trkpt lat="46.63601" lon="5.55834">
        <ele>372.45</ele>
        <time>2020-01-22T14:53:52.000Z</time>
      </trkpt>
      <trkpt lat="46.63611" lon="5.55844">
        <ele>371.63</ele>
        <time>2020-01-22T14:54:02.000Z</time>
      </trkpt>
      <trkpt lat="46.6362" lon="5.55853">
        <ele>370.97</ele>
        <time>2020-01-22T14:54:12.000Z</time>
      </trkpt>
      <trkpt lat="46.6363" lon="5.55859">
        <ele>370.5</ele>
        <time>2020-01-22T14:54:22.000Z</time>
      </trkpt>
      <trkpt lat="46.6364" lon="5.55866">
        <ele>369.99</ele>
        <time>2020-01-22T14:54:32.000Z</time>
      </trkpt>
      <trkpt lat="46.63648" lon="5.55876">
        <ele>369.18</ele>
        <time>2020-01-22T14:54:42.000Z</time>
      </trkpt>
      <trkpt lat="46.63656" lon="5.55885">
        <ele>368.01</ele>
        <time>2020-01-22T14:54:52.000Z</time>
      </trkpt>
      <trkpt lat="46.63662" lon="5.55892">
        <ele>366.85</ele>
        <time>2020-01-22T14:55:02.000Z</time>
      </trkpt>
      <trkpt lat="46.63671" lon="5.55902">
        <ele>365.29</ele>
        <time>2020-01-22T14:55:12.000Z</time>
      </trkpt>
      <trkpt lat="46.6368" lon="5.55913">
        <ele>363.92</ele>
        <time>2020-01-22T14:55:22.000Z</time>
      </trkpt>
      <trkpt lat="46.63691" lon="5.55918">
        <ele>362.73</ele>
        <time>2020-01-22T14:55:32.000Z</time>
      </trkpt>
      <trkpt lat="46.63695" lon="5.55921">
        <ele>362.32</ele>
        <time>2020-01-22T14:55:42.000Z</time>
      </trkpt>
      <trkpt lat="46.63704" lon="5.55924">
        <ele>361.96</ele>
        <time>2020-01-22T14:55:52.000Z</time>
      </trkpt>
      <trkpt lat="46.63709" lon="5.55927">
        <ele>361.66</ele>
        <time>2020-01-22T14:56:02.000Z</time>
      </trkpt>
      <trkpt lat="46.63722" lon="5.55929">
        <ele>360.23</ele>
        <time>2020-01-22T14:56:12.000Z</time>
      </trkpt>
      <trkpt lat="46.63737" lon="5.55931">
        <ele>359.02</ele>
        <time>2020-01-22T14:56:22.000Z</time>
      </trkpt>
      <trkpt lat="46.63745" lon="5.55933">
        <ele>357.91</ele>
        <time>2020-01-22T14:56:32.000Z</time>
      </trkpt>
      <trkpt lat="46.63752" lon="5.55937">
        <ele>356.76</ele>
        <time>2020-01-22T14:56:42.000Z</time>
      </trkpt>
      <trkpt lat="46.63757" lon="5.5594">
        <ele>355.52</ele>
        <time>2020-01-22T14:56:52.000Z</time>
      </trkpt>
      <trkpt lat="46.63757" lon="5.55946">
        <ele>353.55</ele>
        <time>2020-01-22T14:57:02.000Z</time>
      </trkpt>
      <trkpt lat="46.63758" lon="5.55957">
        <ele>352.35</ele>
        <time>2020-01-22T14:57:12.000Z</time>
      </trkpt>
      <trkpt lat="46.6376" lon="5.55973">
        <ele>351.59</ele>
        <time>2020-01-22T14:57:22.000Z</time>
      </trkpt>
      <trkpt lat="46.6376" lon="5.55988">
        <ele>349.92</ele>
        <time>2020-01-22T14:57:32.000Z</time>
      </trkpt>
      <trkpt lat="46.63763" lon="5.55999">
        <ele>348.02</ele>
        <time>2020-01-22T14:57:42.000Z</time>
      </trkpt>
      <trkpt lat="46.63766" lon="5.56015">
        <ele>346.74</ele>
        <time>2020-01-22T14:57:52.000Z</time>
      </trkpt>
      <trkpt lat="46.63771" lon="5.56029">
        <ele>345.5</ele>
        <time>2020-01-22T14:58:02.000Z</time>
      </trkpt>
      <trkpt lat="46.63776" lon="5.56047">
        <ele>344.91</ele>
        <time>2020-01-22T14:58:12.000Z</time>
      </trkpt>
      <trkpt lat="46.63778" lon="5.56061">
        <ele>344.42</ele>
        <time>2020-01-22T14:58:22.000Z</time>
      </trkpt>
      <trkpt lat="46.63775" lon="5.56079">
        <ele>344.25</ele>
        <time>2020-01-22T14:58:32.000Z</time>
      </trkpt>
      <trkpt lat="46.63775" lon="5.56096">
        <ele>343.3</ele>
        <time>2020-01-22T14:58:42.000Z</time>
      </trkpt>
      <trkpt lat="46.63777" lon="5.5611">
        <ele>341.64</ele>
        <time>2020-01-22T14:58:52.000Z</time>
      </trkpt>
      <trkpt lat="46.6378" lon="5.56125">
        <ele>340.15</ele>
        <time>2020-01-22T14:59:02.000Z</time>
      </trkpt>
      <trkpt lat="46.63781" lon="5.56138">
        <ele>338.51</ele>
        <time>2020-01-22T14:59:12.000Z</time>
      </trkpt>
      <trkpt lat="46.63786" lon="5.56154">
        <ele>337.51</ele>
        <time>2020-01-22T14:59:22.000Z</time>
      </trkpt>
      <trkpt lat="46.63792" lon="5.56167">
        <ele>336.64</ele>
        <time>2020-01-22T14:59:32.000Z</time>
      </trkpt>
      <trkpt lat="46.63802" lon="5.56181">
        <ele>335.38</ele>
        <time>2020-01-22T14:59:42.000Z</time>
      </trkpt>
      <trkpt lat="46.63812" lon="5.56188">
        <ele>333.93</ele>
        <time>2020-01-22T14:59:52.000Z</time>
      </trkpt>
      <trkpt lat="46.63817" lon="5.56191">
        <ele>332.35</ele>
        <time>2020-01-22T15:00:02.000Z</time>
      </trkpt>
      <trkpt lat="46.63819" lon="5.56192">
        <ele>331.66</ele>
        <time>2020-01-22T15:00:12.000Z</time>
      </trkpt>
      <trkpt lat="46.63827" lon="5.562">
        <ele>330.57</ele>
        <time>2020-01-22T15:00:22.000Z</time>
      </trkpt>
      <trkpt lat="46.63838" lon="5.56206">
        <ele>329.88</ele>
        <time>2020-01-22T15:00:32.000Z</time>
      </trkpt>
      <trkpt lat="46.63837" lon="5.56205">
        <ele>330.12</ele>
        <time>2020-01-22T15:01:10.000Z</time>
      </trkpt>
      <trkpt lat="46.63835" lon="5.56204">
        <ele>330.9</ele>
        <time>2020-01-22T15:01:20.000Z</time>
      </trkpt>
      <trkpt lat="46.63838" lon="5.56213">
        <ele>331.64</ele>
        <time>2020-01-22T15:01:30.000Z</time>
      </trkpt>
      <trkpt lat="46.63839" lon="5.56213">
        <ele>332.54</ele>
        <time>2020-01-22T15:01:43.000Z</time>
      </trkpt>
      <trkpt lat="46.63843" lon="5.56217">
        <ele>332.34</ele>
        <time>2020-01-22T15:01:53.000Z</time>
      </trkpt>
      <trkpt lat="46.63847" lon="5.56222">
        <ele>331.23</ele>
        <time>2020-01-22T15:02:03.000Z</time>
      </trkpt>
      <trkpt lat="46.63855" lon="5.56228">
        <ele>329.78</ele>
        <time>2020-01-22T15:02:13.000Z</time>
      </trkpt>
      <trkpt lat="46.63877" lon="5.56237">
        <ele>328.09</ele>
        <time>2020-01-22T15:02:23.000Z</time>
      </trkpt>
      <trkpt lat="46.6389" lon="5.5624">
        <ele>327</ele>
        <time>2020-01-22T15:02:33.000Z</time>
      </trkpt>
      <trkpt lat="46.63906" lon="5.56246">
        <ele>325.94</ele>
        <time>2020-01-22T15:02:43.000Z</time>
      </trkpt>
      <trkpt lat="46.6392" lon="5.56254">
        <ele>325.23</ele>
        <time>2020-01-22T15:02:53.000Z</time>
      </trkpt>
      <trkpt lat="46.6393" lon="5.56263">
        <ele>324.43</ele>
        <time>2020-01-22T15:03:03.000Z</time>
      </trkpt>
      <trkpt lat="46.6394" lon="5.56272">
        <ele>323.99</ele>
        <time>2020-01-22T15:03:13.000Z</time>
      </trkpt>
      <trkpt lat="46.63949" lon="5.56278">
        <ele>323.85</ele>
        <time>2020-01-22T15:03:23.000Z</time>
      </trkpt>
      <trkpt lat="46.6396" lon="5.56284">
        <ele>323.34</ele>
        <time>2020-01-22T15:03:33.000Z</time>
      </trkpt>
      <trkpt lat="46.63969" lon="5.56292">
        <ele>322.55</ele>
        <time>2020-01-22T15:03:43.000Z</time>
      </trkpt>
      <trkpt lat="46.63976" lon="5.56301">
        <ele>321.68</ele>
        <time>2020-01-22T15:03:53.000Z</time>
      </trkpt>
      <trkpt lat="46.63977" lon="5.56303">
        <ele>321.26</ele>
        <time>2020-01-22T15:04:03.000Z</time>
      </trkpt>
      <trkpt lat="46.63981" lon="5.56311">
        <ele>320.37</ele>
        <time>2020-01-22T15:04:13.000Z</time>
      </trkpt>
      <trkpt lat="46.63986" lon="5.56312">
        <ele>319.07</ele>
        <time>2020-01-22T15:04:23.000Z</time>
      </trkpt>
      <trkpt lat="46.63996" lon="5.56314">
        <ele>317.45</ele>
        <time>2020-01-22T15:04:33.000Z</time>
      </trkpt>
      <trkpt lat="46.64007" lon="5.56315">
        <ele>315.82</ele>
        <time>2020-01-22T15:04:43.000Z</time>
      </trkpt>
      <trkpt lat="46.64018" lon="5.56318">
        <ele>314.54</ele>
        <time>2020-01-22T15:04:53.000Z</time>
      </trkpt>
      <trkpt lat="46.64028" lon="5.56324">
        <ele>313.63</ele>
        <time>2020-01-22T15:05:03.000Z</time>
      </trkpt>
      <trkpt lat="46.64042" lon="5.56329">
        <ele>313.2</ele>
        <time>2020-01-22T15:05:13.000Z</time>
      </trkpt>
      <trkpt lat="46.64052" lon="5.56332">
        <ele>312.41</ele>
        <time>2020-01-22T15:05:23.000Z</time>
      </trkpt>
      <trkpt lat="46.64059" lon="5.56334">
        <ele>311.84</ele>
        <time>2020-01-22T15:05:33.000Z</time>
      </trkpt>
      <trkpt lat="46.64068" lon="5.56334">
        <ele>311.14</ele>
        <time>2020-01-22T15:05:43.000Z</time>
      </trkpt>
      <trkpt lat="46.64083" lon="5.56334">
        <ele>310.53</ele>
        <time>2020-01-22T15:05:53.000Z</time>
      </trkpt>
      <trkpt lat="46.64094" lon="5.56339">
        <ele>310.19</ele>
        <time>2020-01-22T15:06:03.000Z</time>
      </trkpt>
      <trkpt lat="46.64105" lon="5.56347">
        <ele>310.18</ele>
        <time>2020-01-22T15:06:13.000Z</time>
      </trkpt>
      <trkpt lat="46.64115" lon="5.56357">
        <ele>309.85</ele>
        <time>2020-01-22T15:06:23.000Z</time>
      </trkpt>
      <trkpt lat="46.64126" lon="5.56367">
        <ele>309.19</ele>
        <time>2020-01-22T15:06:33.000Z</time>
      </trkpt>
      <trkpt lat="46.64136" lon="5.56374">
        <ele>308.79</ele>
        <time>2020-01-22T15:06:43.000Z</time>
      </trkpt>
      <trkpt lat="46.64148" lon="5.56382">
        <ele>308.63</ele>
        <time>2020-01-22T15:06:53.000Z</time>
      </trkpt>
      <trkpt lat="46.64159" lon="5.56387">
        <ele>309.15</ele>
        <time>2020-01-22T15:07:03.000Z</time>
      </trkpt>
      <trkpt lat="46.64169" lon="5.56394">
        <ele>309.44</ele>
        <time>2020-01-22T15:07:13.000Z</time>
      </trkpt>
      <trkpt lat="46.64177" lon="5.56401">
        <ele>309.41</ele>
        <time>2020-01-22T15:07:23.000Z</time>
      </trkpt>
      <trkpt lat="46.64187" lon="5.56408">
        <ele>309.09</ele>
        <time>2020-01-22T15:07:33.000Z</time>
      </trkpt>
      <trkpt lat="46.642" lon="5.56417">
        <ele>308.7</ele>
        <time>2020-01-22T15:07:43.000Z</time>
      </trkpt>
      <trkpt lat="46.6421" lon="5.56426">
        <ele>309.01</ele>
        <time>2020-01-22T15:07:53.000Z</time>
      </trkpt>
      <trkpt lat="46.64221" lon="5.56424">
        <ele>309.36</ele>
        <time>2020-01-22T15:08:03.000Z</time>
      </trkpt>
      <trkpt lat="46.64237" lon="5.56421">
        <ele>310.09</ele>
        <time>2020-01-22T15:08:13.000Z</time>
      </trkpt>
      <trkpt lat="46.64245" lon="5.56421">
        <ele>310.77</ele>
        <time>2020-01-22T15:08:23.000Z</time>
      </trkpt>
      <trkpt lat="46.64256" lon="5.56423">
        <ele>311.31</ele>
        <time>2020-01-22T15:08:33.000Z</time>
      </trkpt>
      <trkpt lat="46.64266" lon="5.56426">
        <ele>311.86</ele>
        <time>2020-01-22T15:08:43.000Z</time>
      </trkpt>
      <trkpt lat="46.64272" lon="5.56426">
        <ele>312.22</ele>
        <time>2020-01-22T15:08:53.000Z</time>
      </trkpt>
      <trkpt lat="46.64276" lon="5.56419">
        <ele>312.61</ele>
        <time>2020-01-22T15:09:03.000Z</time>
      </trkpt>
      <trkpt lat="46.64278" lon="5.56401">
        <ele>313.45</ele>
        <time>2020-01-22T15:09:13.000Z</time>
      </trkpt>
      <trkpt lat="46.64281" lon="5.56384">
        <ele>314.4</ele>
        <time>2020-01-22T15:09:23.000Z</time>
      </trkpt>
      <trkpt lat="46.64282" lon="5.56364">
        <ele>315.45</ele>
        <time>2020-01-22T15:09:33.000Z</time>
      </trkpt>
      <trkpt lat="46.64282" lon="5.56351">
        <ele>316.17</ele>
        <time>2020-01-22T15:09:43.000Z</time>
      </trkpt>
      <trkpt lat="46.64285" lon="5.56334">
        <ele>316.3</ele>
        <time>2020-01-22T15:09:53.000Z</time>
      </trkpt>
      <trkpt lat="46.64287" lon="5.56317">
        <ele>316.29</ele>
        <time>2020-01-22T15:10:03.000Z</time>
      </trkpt>
      <trkpt lat="46.64291" lon="5.56302">
        <ele>316.47</ele>
        <time>2020-01-22T15:10:13.000Z</time>
      </trkpt>
      <trkpt lat="46.64294" lon="5.56292">
        <ele>316.95</ele>
        <time>2020-01-22T15:10:23.000Z</time>
      </trkpt>
      <trkpt lat="46.64298" lon="5.56283">
        <ele>317.15</ele>
        <time>2020-01-22T15:10:33.000Z</time>
      </trkpt>
      <trkpt lat="46.64303" lon="5.5627">
        <ele>317.13</ele>
        <time>2020-01-22T15:10:43.000Z</time>
      </trkpt>
      <trkpt lat="46.64308" lon="5.56257">
        <ele>317.18</ele>
        <time>2020-01-22T15:10:53.000Z</time>
      </trkpt>
      <trkpt lat="46.64311" lon="5.56246">
        <ele>317.87</ele>
        <time>2020-01-22T15:11:03.000Z</time>
      </trkpt>
      <trkpt lat="46.64317" lon="5.56232">
        <ele>319.03</ele>
        <time>2020-01-22T15:11:13.000Z</time>
      </trkpt>
      <trkpt lat="46.64316" lon="5.56215">
        <ele>320.16</ele>
        <time>2020-01-22T15:11:23.000Z</time>
      </trkpt>
      <trkpt lat="46.64313" lon="5.56202">
        <ele>320.72</ele>
        <time>2020-01-22T15:11:33.000Z</time>
      </trkpt>
      <trkpt lat="46.64318" lon="5.56186">
        <ele>321.4</ele>
        <time>2020-01-22T15:11:43.000Z</time>
      </trkpt>
      <trkpt lat="46.64326" lon="5.56176">
        <ele>321.86</ele>
        <time>2020-01-22T15:11:53.000Z</time>
      </trkpt>
      <trkpt lat="46.64332" lon="5.56165">
        <ele>322.06</ele>
        <time>2020-01-22T15:12:03.000Z</time>
      </trkpt>
      <trkpt lat="46.64339" lon="5.56152">
        <ele>322.15</ele>
        <time>2020-01-22T15:12:13.000Z</time>
      </trkpt>
      <trkpt lat="46.64345" lon="5.5614">
        <ele>322.07</ele>
        <time>2020-01-22T15:12:23.000Z</time>
      </trkpt>
      <trkpt lat="46.64352" lon="5.56128">
        <ele>321.74</ele>
        <time>2020-01-22T15:12:33.000Z</time>
      </trkpt>
      <trkpt lat="46.64361" lon="5.56115">
        <ele>321.31</ele>
        <time>2020-01-22T15:12:43.000Z</time>
      </trkpt>
      <trkpt lat="46.64367" lon="5.56102">
        <ele>320.59</ele>
        <time>2020-01-22T15:12:53.000Z</time>
      </trkpt>
      <trkpt lat="46.64373" lon="5.56089">
        <ele>319.75</ele>
        <time>2020-01-22T15:13:03.000Z</time>
      </trkpt>
      <trkpt lat="46.64378" lon="5.56075">
        <ele>318.84</ele>
        <time>2020-01-22T15:13:13.000Z</time>
      </trkpt>
      <trkpt lat="46.64385" lon="5.56058">
        <ele>318</ele>
        <time>2020-01-22T15:13:23.000Z</time>
      </trkpt>
      <trkpt lat="46.64386" lon="5.56041">
        <ele>317.43</ele>
        <time>2020-01-22T15:13:33.000Z</time>
      </trkpt>
      <trkpt lat="46.64383" lon="5.56024">
        <ele>316.64</ele>
        <time>2020-01-22T15:13:43.000Z</time>
      </trkpt>
      <trkpt lat="46.6438" lon="5.56009">
        <ele>315.61</ele>
        <time>2020-01-22T15:13:53.000Z</time>
      </trkpt>
      <trkpt lat="46.64378" lon="5.55993">
        <ele>314.54</ele>
        <time>2020-01-22T15:14:03.000Z</time>
      </trkpt>
      <trkpt lat="46.64379" lon="5.55977">
        <ele>313.39</ele>
        <time>2020-01-22T15:14:13.000Z</time>
      </trkpt>
      <trkpt lat="46.64386" lon="5.55968">
        <ele>312.15</ele>
        <time>2020-01-22T15:14:23.000Z</time>
      </trkpt>
      <trkpt lat="46.6439" lon="5.55961">
        <ele>310.28</ele>
        <time>2020-01-22T15:14:33.000Z</time>
      </trkpt>
      <trkpt lat="46.644" lon="5.55959">
        <ele>308.68</ele>
        <time>2020-01-22T15:14:43.000Z</time>
      </trkpt>
      <trkpt lat="46.64409" lon="5.55954">
        <ele>307.33</ele>
        <time>2020-01-22T15:14:53.000Z</time>
      </trkpt>
      <trkpt lat="46.6442" lon="5.55953">
        <ele>306.72</ele>
        <time>2020-01-22T15:15:03.000Z</time>
      </trkpt>
      <trkpt lat="46.64431" lon="5.55952">
        <ele>306.59</ele>
        <time>2020-01-22T15:15:13.000Z</time>
      </trkpt>
      <trkpt lat="46.64439" lon="5.55954">
        <ele>306.47</ele>
        <time>2020-01-22T15:15:23.000Z</time>
      </trkpt>
      <trkpt lat="46.64448" lon="5.55955">
        <ele>306.53</ele>
        <time>2020-01-22T15:15:33.000Z</time>
      </trkpt>
      <trkpt lat="46.64461" lon="5.55951">
        <ele>306.37</ele>
        <time>2020-01-22T15:15:43.000Z</time>
      </trkpt>
      <trkpt lat="46.64472" lon="5.55947">
        <ele>306.82</ele>
        <time>2020-01-22T15:15:53.000Z</time>
      </trkpt>
      <trkpt lat="46.64483" lon="5.55941">
        <ele>307.25</ele>
        <time>2020-01-22T15:16:03.000Z</time>
      </trkpt>
      <trkpt lat="46.64492" lon="5.55935">
        <ele>307.27</ele>
        <time>2020-01-22T15:16:13.000Z</time>
      </trkpt>
      <trkpt lat="46.64504" lon="5.55931">
        <ele>307.36</ele>
        <time>2020-01-22T15:16:23.000Z</time>
      </trkpt>
      <trkpt lat="46.64515" lon="5.55927">
        <ele>307.33</ele>
        <time>2020-01-22T15:16:33.000Z</time>
      </trkpt>
      <trkpt lat="46.64526" lon="5.5592">
        <ele>307.38</ele>
        <time>2020-01-22T15:16:43.000Z</time>
      </trkpt>
      <trkpt lat="46.64533" lon="5.55915">
        <ele>307.04</ele>
        <time>2020-01-22T15:16:53.000Z</time>
      </trkpt>
      <trkpt lat="46.64543" lon="5.55907">
        <ele>306.44</ele>
        <time>2020-01-22T15:17:03.000Z</time>
      </trkpt>
      <trkpt lat="46.64555" lon="5.55898">
        <ele>306.23</ele>
        <time>2020-01-22T15:17:13.000Z</time>
      </trkpt>
      <trkpt lat="46.64564" lon="5.55891">
        <ele>306.04</ele>
        <time>2020-01-22T15:17:23.000Z</time>
      </trkpt>
      <trkpt lat="46.64577" lon="5.55882">
        <ele>306.15</ele>
        <time>2020-01-22T15:17:33.000Z</time>
      </trkpt>
      <trkpt lat="46.64587" lon="5.55874">
        <ele>306.49</ele>
        <time>2020-01-22T15:17:43.000Z</time>
      </trkpt>
      <trkpt lat="46.64595" lon="5.55867">
        <ele>306.73</ele>
        <time>2020-01-22T15:17:53.000Z</time>
      </trkpt>
      <trkpt lat="46.64605" lon="5.55861">
        <ele>306.62</ele>
        <time>2020-01-22T15:18:03.000Z</time>
      </trkpt>
      <trkpt lat="46.64613" lon="5.55853">
        <ele>306.54</ele>
        <time>2020-01-22T15:18:13.000Z</time>
      </trkpt>
      <trkpt lat="46.64622" lon="5.55846">
        <ele>306.44</ele>
        <time>2020-01-22T15:18:23.000Z</time>
      </trkpt>
      <trkpt lat="46.64633" lon="5.55839">
        <ele>306.08</ele>
        <time>2020-01-22T15:18:33.000Z</time>
      </trkpt>
      <trkpt lat="46.64642" lon="5.55833">
        <ele>306.2</ele>
        <time>2020-01-22T15:18:43.000Z</time>
      </trkpt>
      <trkpt lat="46.64649" lon="5.55825">
        <ele>306.18</ele>
        <time>2020-01-22T15:18:53.000Z</time>
      </trkpt>
      <trkpt lat="46.64657" lon="5.55818">
        <ele>305.09</ele>
        <time>2020-01-22T15:19:03.000Z</time>
      </trkpt>
      <trkpt lat="46.64667" lon="5.55808">
        <ele>303.76</ele>
        <time>2020-01-22T15:19:13.000Z</time>
      </trkpt>
      <trkpt lat="46.64677" lon="5.55799">
        <ele>303.63</ele>
        <time>2020-01-22T15:19:23.000Z</time>
      </trkpt>
      <trkpt lat="46.64689" lon="5.55793">
        <ele>303.79</ele>
        <time>2020-01-22T15:19:33.000Z</time>
      </trkpt>
      <trkpt lat="46.64695" lon="5.55788">
        <ele>304.13</ele>
        <time>2020-01-22T15:19:43.000Z</time>
      </trkpt>
      <trkpt lat="46.64696" lon="5.55787">
        <ele>304.26</ele>
        <time>2020-01-22T15:19:53.000Z</time>
      </trkpt>
      <trkpt lat="46.64696" lon="5.55786">
        <ele>304.36</ele>
        <time>2020-01-22T15:20:03.000Z</time>
      </trkpt>
      <trkpt lat="46.64698" lon="5.55786">
        <ele>304.78</ele>
        <time>2020-01-22T15:20:16.000Z</time>
      </trkpt>
      <trkpt lat="46.64701" lon="5.55785">
        <ele>304.85</ele>
        <time>2020-01-22T15:20:26.000Z</time>
      </trkpt>
      <trkpt lat="46.647" lon="5.55785">
        <ele>305.1</ele>
        <time>2020-01-22T15:20:58.000Z</time>
      </trkpt>
      <trkpt lat="46.64699" lon="5.55784">
        <ele>305.24</ele>
        <time>2020-01-22T15:21:09.000Z</time>
      </trkpt>
      <trkpt lat="46.64708" lon="5.55783">
        <ele>305.9</ele>
        <time>2020-01-22T15:21:19.000Z</time>
      </trkpt>
      <trkpt lat="46.64715" lon="5.55777">
        <ele>307.05</ele>
        <time>2020-01-22T15:21:29.000Z</time>
      </trkpt>
      <trkpt lat="46.6472" lon="5.55776">
        <ele>307.47</ele>
        <time>2020-01-22T15:21:39.000Z</time>
      </trkpt>
      <trkpt lat="46.6473" lon="5.55771">
        <ele>307.35</ele>
        <time>2020-01-22T15:21:49.000Z</time>
      </trkpt>
      <trkpt lat="46.6474" lon="5.5576">
        <ele>307.29</ele>
        <time>2020-01-22T15:21:59.000Z</time>
      </trkpt>
      <trkpt lat="46.64752" lon="5.55753">
        <ele>307.98</ele>
        <time>2020-01-22T15:22:09.000Z</time>
      </trkpt>
      <trkpt lat="46.6476" lon="5.55748">
        <ele>308.73</ele>
        <time>2020-01-22T15:22:19.000Z</time>
      </trkpt>
      <trkpt lat="46.6477" lon="5.55742">
        <ele>309.6</ele>
        <time>2020-01-22T15:22:29.000Z</time>
      </trkpt>
      <trkpt lat="46.64783" lon="5.55733">
        <ele>311.26</ele>
        <time>2020-01-22T15:22:39.000Z</time>
      </trkpt>
      <trkpt lat="46.6479" lon="5.55736">
        <ele>311.5</ele>
        <time>2020-01-22T15:22:49.000Z</time>
      </trkpt>
      <trkpt lat="46.64796" lon="5.55733">
        <ele>311.33</ele>
        <time>2020-01-22T15:22:59.000Z</time>
      </trkpt>
      <trkpt lat="46.64806" lon="5.55727">
        <ele>311.53</ele>
        <time>2020-01-22T15:23:09.000Z</time>
      </trkpt>
      <trkpt lat="46.64819" lon="5.55717">
        <ele>312.32</ele>
        <time>2020-01-22T15:23:19.000Z</time>
      </trkpt>
      <trkpt lat="46.64827" lon="5.55715">
        <ele>313.42</ele>
        <time>2020-01-22T15:23:29.000Z</time>
      </trkpt>
      <trkpt lat="46.64836" lon="5.55711">
        <ele>314.14</ele>
        <time>2020-01-22T15:23:39.000Z</time>
      </trkpt>
      <trkpt lat="46.64842" lon="5.55705">
        <ele>314.62</ele>
        <time>2020-01-22T15:23:49.000Z</time>
      </trkpt>
      <trkpt lat="46.64852" lon="5.55699">
        <ele>314.75</ele>
        <time>2020-01-22T15:23:59.000Z</time>
      </trkpt>
      <trkpt lat="46.64857" lon="5.55696">
        <ele>314.68</ele>
        <time>2020-01-22T15:24:09.000Z</time>
      </trkpt>
      <trkpt lat="46.64867" lon="5.55691">
        <ele>312.99</ele>
        <time>2020-01-22T15:24:19.000Z</time>
      </trkpt>
      <trkpt lat="46.64865" lon="5.55691">
        <ele>311.52</ele>
        <time>2020-01-22T15:24:29.000Z</time>
      </trkpt>
      <trkpt lat="46.6487" lon="5.55687">
        <ele>310.65</ele>
        <time>2020-01-22T15:24:39.000Z</time>
      </trkpt>
      <trkpt lat="46.64865" lon="5.55674">
        <ele>310.82</ele>
        <time>2020-01-22T15:24:49.000Z</time>
      </trkpt>
      <trkpt lat="46.64855" lon="5.55663">
        <ele>311.37</ele>
        <time>2020-01-22T15:24:59.000Z</time>
      </trkpt>
      <trkpt lat="46.64845" lon="5.55651">
        <ele>311.41</ele>
        <time>2020-01-22T15:25:09.000Z</time>
      </trkpt>
      <trkpt lat="46.64837" lon="5.55637">
        <ele>310.84</ele>
        <time>2020-01-22T15:25:19.000Z</time>
      </trkpt>
      <trkpt lat="46.6483" lon="5.55623">
        <ele>310.23</ele>
        <time>2020-01-22T15:25:29.000Z</time>
      </trkpt>
      <trkpt lat="46.64825" lon="5.55609">
        <ele>309.7</ele>
        <time>2020-01-22T15:25:39.000Z</time>
      </trkpt>
      <trkpt lat="46.64818" lon="5.55589">
        <ele>309.25</ele>
        <time>2020-01-22T15:25:49.000Z</time>
      </trkpt>
      <trkpt lat="46.64814" lon="5.55576">
        <ele>308.71</ele>
        <time>2020-01-22T15:25:59.000Z</time>
      </trkpt>
      <trkpt lat="46.64808" lon="5.55561">
        <ele>307.64</ele>
        <time>2020-01-22T15:26:09.000Z</time>
      </trkpt>
      <trkpt lat="46.64802" lon="5.55547">
        <ele>306.29</ele>
        <time>2020-01-22T15:26:19.000Z</time>
      </trkpt>
      <trkpt lat="46.64799" lon="5.55532">
        <ele>305.32</ele>
        <time>2020-01-22T15:26:29.000Z</time>
      </trkpt>
      <trkpt lat="46.64795" lon="5.55511">
        <ele>304.9</ele>
        <time>2020-01-22T15:26:39.000Z</time>
      </trkpt>
      <trkpt lat="46.64787" lon="5.55494">
        <ele>304.73</ele>
        <time>2020-01-22T15:26:49.000Z</time>
      </trkpt>
      <trkpt lat="46.64782" lon="5.55475">
        <ele>303.68</ele>
        <time>2020-01-22T15:26:59.000Z</time>
      </trkpt>
      <trkpt lat="46.64779" lon="5.55464">
        <ele>302.98</ele>
        <time>2020-01-22T15:27:09.000Z</time>
      </trkpt>
      <trkpt lat="46.64777" lon="5.55449">
        <ele>302.63</ele>
        <time>2020-01-22T15:27:19.000Z</time>
      </trkpt>
      <trkpt lat="46.64771" lon="5.55434">
        <ele>301.78</ele>
        <time>2020-01-22T15:27:29.000Z</time>
      </trkpt>
      <trkpt lat="46.6477" lon="5.55418">
        <ele>300.67</ele>
        <time>2020-01-22T15:27:39.000Z</time>
      </trkpt>
      <trkpt lat="46.64766" lon="5.55393">
        <ele>299.48</ele>
        <time>2020-01-22T15:27:49.000Z</time>
      </trkpt>
      <trkpt lat="46.64764" lon="5.55372">
        <ele>299.34</ele>
        <time>2020-01-22T15:27:59.000Z</time>
      </trkpt>
      <trkpt lat="46.6476" lon="5.55356">
        <ele>299.32</ele>
        <time>2020-01-22T15:28:09.000Z</time>
      </trkpt>
      <trkpt lat="46.64757" lon="5.55342">
        <ele>298.82</ele>
        <time>2020-01-22T15:28:19.000Z</time>
      </trkpt>
      <trkpt lat="46.64754" lon="5.55325">
        <ele>298.37</ele>
        <time>2020-01-22T15:28:29.000Z</time>
      </trkpt>
      <trkpt lat="46.6475" lon="5.55316">
        <ele>297.62</ele>
        <time>2020-01-22T15:28:39.000Z</time>
      </trkpt>
      <trkpt lat="46.6475" lon="5.55295">
        <ele>296.44</ele>
        <time>2020-01-22T15:28:49.000Z</time>
      </trkpt>
      <trkpt lat="46.64748" lon="5.55276">
        <ele>295.81</ele>
        <time>2020-01-22T15:28:59.000Z</time>
      </trkpt>
      <trkpt lat="46.64752" lon="5.55253">
        <ele>295.98</ele>
        <time>2020-01-22T15:29:09.000Z</time>
      </trkpt>
      <trkpt lat="46.64754" lon="5.55233">
        <ele>296.4</ele>
        <time>2020-01-22T15:29:19.000Z</time>
      </trkpt>
      <trkpt lat="46.64759" lon="5.55217">
        <ele>296.64</ele>
        <time>2020-01-22T15:29:29.000Z</time>
      </trkpt>
      <trkpt lat="46.64761" lon="5.55203">
        <ele>296.67</ele>
        <time>2020-01-22T15:29:39.000Z</time>
      </trkpt>
      <trkpt lat="46.64765" lon="5.55185">
        <ele>297.21</ele>
        <time>2020-01-22T15:29:49.000Z</time>
      </trkpt>
      <trkpt lat="46.64767" lon="5.55166">
        <ele>298.19</ele>
        <time>2020-01-22T15:29:59.000Z</time>
      </trkpt>
      <trkpt lat="46.64774" lon="5.55151">
        <ele>298.56</ele>
        <time>2020-01-22T15:30:09.000Z</time>
      </trkpt>
      <trkpt lat="46.64777" lon="5.55133">
        <ele>298.99</ele>
        <time>2020-01-22T15:30:19.000Z</time>
      </trkpt>
      <trkpt lat="46.64782" lon="5.55116">
        <ele>300.14</ele>
        <time>2020-01-22T15:30:29.000Z</time>
      </trkpt>
      <trkpt lat="46.64784" lon="5.55089">
        <ele>300.88</ele>
        <time>2020-01-22T15:30:39.000Z</time>
      </trkpt>
      <trkpt lat="46.64788" lon="5.55081">
        <ele>300.99</ele>
        <time>2020-01-22T15:30:49.000Z</time>
      </trkpt>
      <trkpt lat="46.64791" lon="5.55069">
        <ele>301.08</ele>
        <time>2020-01-22T15:30:59.000Z</time>
      </trkpt>
      <trkpt lat="46.64798" lon="5.5506">
        <ele>300.67</ele>
        <time>2020-01-22T15:31:09.000Z</time>
      </trkpt>
      <trkpt lat="46.64803" lon="5.55049">
        <ele>300.02</ele>
        <time>2020-01-22T15:31:19.000Z</time>
      </trkpt>
      <trkpt lat="46.6481" lon="5.55033">
        <ele>298.1</ele>
        <time>2020-01-22T15:31:29.000Z</time>
      </trkpt>
      <trkpt lat="46.64816" lon="5.55012">
        <ele>296.45</ele>
        <time>2020-01-22T15:31:39.000Z</time>
      </trkpt>
      <trkpt lat="46.64821" lon="5.54997">
        <ele>294.69</ele>
        <time>2020-01-22T15:31:49.000Z</time>
      </trkpt>
      <trkpt lat="46.6482" lon="5.54985">
        <ele>293.37</ele>
        <time>2020-01-22T15:31:59.000Z</time>
      </trkpt>
      <trkpt lat="46.64822" lon="5.54965">
        <ele>292.77</ele>
        <time>2020-01-22T15:32:09.000Z</time>
      </trkpt>
      <trkpt lat="46.64821" lon="5.54948">
        <ele>292.44</ele>
        <time>2020-01-22T15:32:19.000Z</time>
      </trkpt>
      <trkpt lat="46.6482" lon="5.54937">
        <ele>292.12</ele>
        <time>2020-01-22T15:32:29.000Z</time>
      </trkpt>
      <trkpt lat="46.64822" lon="5.54919">
        <ele>291.79</ele>
        <time>2020-01-22T15:32:39.000Z</time>
      </trkpt>
      <trkpt lat="46.64826" lon="5.54908">
        <ele>291.82</ele>
        <time>2020-01-22T15:32:49.000Z</time>
      </trkpt>
      <trkpt lat="46.64828" lon="5.54899">
        <ele>291.92</ele>
        <time>2020-01-22T15:32:59.000Z</time>
      </trkpt>
      <trkpt lat="46.64829" lon="5.54902">
        <ele>291.2</ele>
        <time>2020-01-22T15:33:09.000Z</time>
      </trkpt>
      <trkpt lat="46.6483" lon="5.54889">
        <ele>289.67</ele>
        <time>2020-01-22T15:33:19.000Z</time>
      </trkpt>
      <trkpt lat="46.64827" lon="5.54875">
        <ele>288.43</ele>
        <time>2020-01-22T15:33:29.000Z</time>
      </trkpt>
      <trkpt lat="46.64822" lon="5.54863">
        <ele>287.46</ele>
        <time>2020-01-22T15:33:38.999Z</time>
      </trkpt>
      <trkpt lat="46.64828" lon="5.54857">
        <ele>287.41</ele>
        <time>2020-01-22T15:33:48.999Z</time>
      </trkpt>
    </trkseg>
  </trk>
</gpx>